Data for 07/06/2008

Time Sea-Level Adjusted Pressure Absolute Pressure Temperature Relative Humidity Dew Point Precipitation   
(mb) (inHg) (mb) (inHg) (C) (F) (%) (C) (F) (mm) (in)
00:01 1020 30.12 849 25.07 13.7 56.7 83 10.9 51.6 0
00:02 1020 30.12 849 25.07 13.9 57.1 82 10.9 51.6 0
00:03 1020 30.12 849 25.07 14 57.3 81 10.8 51.4 0
00:04 1020 30.12 849 25.07 14 57.3 81 10.9 51.6 0
00:05 1020 30.12 849 25.07 14 57.1 82 11 51.7 0
00:06 1020 30.12 849 25.07 13.9 56.9 83 11 51.8 0
00:07 1020 30.12 849 25.07 13.9 57 83 11 51.9 0
00:08 1020 30.12 849 25.07 13.9 56.9 83 11 51.9 0
00:09 1020 30.12 849 25.07 13.8 56.8 83 11 51.7 0
00:10 1020 30.12 849 25.07 13.8 56.8 83 10.9 51.7 0
00:11 1020 30.12 849 25.07 13.8 56.9 82 10.9 51.6 0
00:12 1020 30.12 849 25.07 13.9 57 82 10.9 51.6 0
00:13 1020 30.12 849 25.07 14 57.1 81 10.8 51.5 0
00:14 1020 30.12 849 25.07 14 57.2 81 10.9 51.6 0
00:15 1020 30.12 849 25.07 14 57.2 82 10.9 51.7 0
00:16 1020 30.12 849 25.07 13.9 57 82 10.9 51.7 0
00:17 1020 30.12 849 25.07 13.9 57 82 10.9 51.7 0
00:18 1020 30.12 849 25.07 14 57.2 81 10.9 51.6 0
00:19 1020 30.12 849 25.07 14 57.2 81 10.9 51.6 0
00:20 1020 30.12 849 25.07 14 57.2 81 10.8 51.5 0
00:21 1020 30.12 849 25.07 14 57.1 82 10.9 51.6 0
00:22 1020 30.12 849 25.07 13.9 57 82 10.9 51.7 0
00:23 1020 30.12 849 25.07 13.8 56.9 82 10.9 51.7 0
00:24 1020 30.12 849 25.07 13.8 56.9 83 10.9 51.7 0
00:25 1020 30.12 849 25.07 13.9 57 82 10.9 51.6 0
00:26 1020 30.12 849 25.07 13.9 57.1 82 11 51.8 0
00:27 1020 30.12 849 25.07 13.9 56.9 83 11 51.8 0
00:28 1020 30.12 849 25.07 13.7 56.7 84 11 51.8 0
00:29 1020 30.12 849 25.07 13.6 56.4 84 11 51.7 0
00:30 1020 30.12 849 25.07 13.5 56.4 85 11 51.8 0
00:31 1020 30.12 849 25.07 13.6 56.4 85 11.1 51.9 0
00:32 1020 30.12 849 25.07 13.7 56.6 84 11.1 51.9 0
00:33 1020 30.12 849 25.07 13.7 56.6 84 11.1 51.9 0
00:34 1020 30.12 849 25.07 13.7 56.7 84 11.1 52 0
00:35 1020 30.12 849 25.07 13.6 56.6 84 11.1 51.9 0
00:36 1020 30.12 849 25.07 13.6 56.4 84 11 51.8 0
00:37 1020 30.12 849 25.07 13.5 56.4 84 11 51.8 0
00:38 1020 30.12 849 25.07 13.6 56.4 84 10.9 51.7 0
00:39 1020 30.12 849 25.07 13.7 56.7 83 10.9 51.6 0
00:40 1020 30.12 849 25.07 13.9 56.9 82 10.9 51.6 0
00:41 1020 30.12 849 25.07 13.9 57.1 82 10.9 51.6 0
00:42 1020 30.12 849 25.07 14 57.2 82 11 51.7 0
00:43 1020 30.12 849 25.07 14 57.1 82 10.9 51.6 0
00:44 1020 30.12 849 25.07 13.9 57.1 82 10.9 51.6 0
00:45 1020 30.12 849 25.07 13.9 57 82 10.8 51.5 0
00:46 1020 30.12 849 25.07 13.8 56.9 82 10.8 51.5 0
00:47 1020 30.12 849 25.07 13.8 56.8 82 10.8 51.4 0
00:48 1020 30.12 849 25.07 13.8 56.8 82 10.7 51.2 0
00:49 1020 30.12 849 25.07 13.8 56.8 82 10.7 51.3 0
00:50 1020 30.12 849 25.07 13.7 56.7 82 10.7 51.3 0
00:51 1020 30.12 849 25.07 13.6 56.6 82 10.7 51.3 0
00:52 1020 30.12 849 25.07 13.6 56.4 82 10.7 51.2 0
00:53 1020 30.12 849 25.07 13.5 56.3 82 10.6 51.1 0
00:54 1020 30.12 849 25.07 13.4 56.2 82 10.5 50.9 0
00:55 1020 30.12 849 25.07 13.4 56.2 82 10.5 51 0
00:56 1020 30.12 849 25.07 13.4 56.2 82 10.5 50.9 0
00:57 1020 30.12 849 25.07 13.4 56.2 83 10.6 51 0
00:58 1020 30.12 849 25.07 13.4 56.1 82 10.5 50.9 0
00:59 1020 30.12 849 25.07 13.4 56.1 82 10.5 50.9 0
01:00 1020 30.12 849 25.07 13.3 56 82 10.4 50.8 0
01:01 1020 30.12 849 25.07 13.2 55.8 83 10.4 50.7 0
01:02 1020 30.12 849 25.07 13.1 55.5 83 10.3 50.6 0
01:03 1020 30.12 849 25.07 13 55.4 84 10.3 50.6 0
01:04 1020 30.12 849 25.07 13 55.3 84 10.3 50.6 0
01:05 1020 30.12 849 25.07 12.9 55.2 84 10.3 50.5 0
01:06 1020 30.12 849 25.07 12.9 55.2 84 10.3 50.5 0
01:07 1020 30.12 849 25.07 12.8 55.1 84 10.2 50.4 0
01:08 1020 30.12 849 25.07 12.8 55 84 10.2 50.4 0
01:09 1020 30.12 849 25.07 12.7 54.9 84 10.2 50.3 0
01:10 1020 30.12 849 25.07 12.7 54.9 84 10.2 50.3 0
01:11 1020 30.12 849 25.07 12.7 54.9 84 10.1 50.3 0
01:12 1020 30.12 849 25.07 12.7 54.9 84 10.1 50.2 0
01:13 1020 30.12 849 25.07 12.7 54.8 84 10.1 50.1 0
01:14 1020 30.12 849 25.07 12.6 54.7 84 10 49.9 0
01:15 1020 30.12 849 25.07 12.6 54.7 84 10 50 0
01:16 1020 30.12 849 25.07 12.5 54.5 84 9.9 49.8 0
01:17 1020 30.12 849 25.07 12.4 54.3 84 9.9 49.7 0
01:18 1020 30.12 849 25.07 12.3 54.2 85 9.8 49.7 0
01:19 1020 30.12 849 25.07 12.2 54 85 9.8 49.6 0
01:20 1020 30.12 849 25.07 12.2 54 85 9.8 49.7 0
01:21 1020 30.12 849 25.07 12.1 53.8 85 9.7 49.5 0
01:22 1020 30.12 849 25.07 12.1 53.7 85 9.7 49.4 0
01:23 1020 30.12 849 25.07 12 53.7 85 9.5 49.2 0
01:24 1020 30.12 849 25.07 12.1 53.8 84 9.5 49 0
01:25 1020 30.12 849 25.07 12.3 54.1 83 9.4 48.9 0
01:26 1020 30.12 849 25.07 12.4 54.4 82 9.4 49 0
01:27 1020 30.12 849 25.07 12.6 54.6 82 9.5 49.1 0
01:28 1020 30.12 849 25.07 12.6 54.7 81 9.5 49.1 0
01:29 1020 30.12 849 25.07 12.6 54.7 81 9.5 49.2 0
01:30 1020 30.12 849 25.07 12.6 54.7 81 9.5 49.1 0
01:31 1020 30.12 849 25.07 12.6 54.8 81 9.5 49.1 0
01:32 1020 30.12 849 25.07 12.6 54.7 81 9.5 49.1 0
01:33 1020 30.12 849 25.07 12.6 54.6 81 9.5 49 0
01:34 1020 30.12 849 25.07 12.5 54.6 82 9.5 49.1 0
01:35 1020 30.12 849 25.07 12.4 54.4 82 9.4 48.9 0
01:36 1020 30.12 849 25.07 12.5 54.4 82 9.5 49.1 0
01:37 1020 30.12 849 25.07 12.4 54.2 82 9.4 49 0
01:38 1020 30.12 849 25.07 12.3 54.2 82 9.4 49 0
01:39 1020 30.12 849 25.07 12.2 54 83 9.4 48.9 0
01:40 1020 30.12 849 25.07 12.2 54 83 9.4 49 0
01:41 1020 30.12 849 25.07 12.2 53.9 83 9.4 48.9 0
01:42 1020 30.12 849 25.07 12.2 54 83 9.5 49 0
01:43 1020 30.12 849 25.07 12.2 54 83 9.4 48.9 0
01:44 1020 30.12 849 25.07 12.4 54.2 82 9.4 49 0
01:45 1020 30.12 849 25.07 12.5 54.4 82 9.5 49.1 0
01:46 1020 30.12 849 25.07 12.5 54.5 82 9.5 49.1 0
01:47 1020 30.12 849 25.07 12.5 54.6 81 9.5 49 0
01:48 1020 30.12 849 25.07 12.5 54.5 81 9.4 49 0
01:49 1020 30.12 849 25.07 12.5 54.5 81 9.4 49 0
01:50 1020 30.12 849 25.07 12.4 54.4 81 9.4 48.9 0
01:51 1020 30.12 849 25.07 12.3 54.2 81 9.1 48.4 0
01:52 1020 30.12 849 25.07 11.9 53.5 82 8.9 48.1 0
01:53 1020 30.12 849 25.07 11.6 52.8 83 8.8 47.9 0
01:54 1020 30.12 849 25.07 11.3 52.3 85 8.8 47.9 0
01:55 1020 30.12 849 25.07 11.1 51.9 86 8.8 47.8 0
01:56 1020 30.12 849 25.07 10.9 51.5 87 8.7 47.7 0
01:57 1020 30.12 849 25.07 10.7 51.3 87 8.7 47.7 0
01:58 1020 30.12 849 25.07 10.7 51.2 88 8.8 47.8 0
01:59 1020 30.12 849 25.07 10.7 51.2 88 8.7 47.7 0
02:00 1020 30.12 849 25.07 10.7 51.2 88 8.8 47.8 0
02:01 1020 30.12 849 25.07 10.7 51.3 88 8.8 47.9 0
02:02 1020 30.12 849 25.07 10.8 51.4 88 8.8 47.9 0
02:03 1020 30.12 849 25.07 10.8 51.4 88 8.8 47.9 0
02:04 1020 30.12 849 25.07 10.7 51.3 88 8.9 47.9 0
02:05 1020 30.12 849 25.07 10.7 51.3 88 8.8 47.9 0
02:06 1020 30.12 849 25.07 10.7 51.3 89 9 48.1 0
02:07 1020 30.12 849 25.07 10.8 51.4 89 9 48.2 0
02:08 1020 30.12 849 25.07 10.8 51.4 89 9 48.2 0
02:09 1020 30.12 849 25.07 10.8 51.5 89 9 48.2 0
02:10 1020 30.12 849 25.07 10.8 51.5 89 9.1 48.3 0
02:11 1020 30.12 849 25.07 10.9 51.5 89 9 48.3 0
02:12 1020 30.12 849 25.07 10.8 51.5 89 9 48.2 0
02:13 1020 30.12 849 25.07 10.8 51.4 89 9 48.2 0
02:14 1020 30.12 849 25.07 10.8 51.4 88 9 48.1 0
02:15 1020 30.12 849 25.07 10.7 51.3 88 8.9 48 0
02:16 1020 30.12 849 25.07 10.7 51.3 89 9 48.1 0
02:17 1020 30.12 849 25.07 10.7 51.3 90 9.1 48.3 0
02:18 1020 30.12 849 25.07 10.7 51.3 90 9.2 48.5 0
02:19 1020 30.12 849 25.07 10.9 51.6 89 9.2 48.6 0
02:20 1020 30.12 849 25.07 11.1 51.9 89 9.3 48.7 0
02:21 1020 30.12 849 25.07 11.2 52.2 87 9.2 48.5 0
02:22 1020 30.12 849 25.07 11.3 52.4 86 9.1 48.3 0
02:23 1020 30.12 849 25.07 11.4 52.4 86 9.1 48.3 0
02:24 1020 30.12 849 25.07 11.4 52.5 86 9.1 48.3 0
02:25 1020 30.12 849 25.07 11.5 52.6 85 9.1 48.4 0
02:26 1020 30.12 849 25.07 11.5 52.7 85 9 48.2 0
02:27 1020 30.12 849 25.07 11.6 52.8 85 9.1 48.5 0
02:28 1020 30.12 849 25.07 11.6 52.9 84 9 48.3 0
02:29 1020 30.12 849 25.07 11.6 52.9 84 9.1 48.3 0
02:30 1020 30.12 849 25.07 11.6 52.8 85 9.1 48.4 0
02:31 1020 30.12 849 25.07 11.6 52.8 84 9.1 48.3 0
02:32 1020 30.12 849 25.07 11.5 52.7 85 9.1 48.3 0
02:33 1020 30.12 849 25.07 11.4 52.5 87 9.3 48.7 0
02:34 1020 30.12 849 25.07 11.5 52.6 87 9.3 48.7 0
02:35 1020 30.12 849 25.07 11.6 52.9 85 9.2 48.6 0
02:36 1020 30.12 849 25.07 11.8 53.2 85 9.4 48.9 0
02:37 1020 30.12 849 25.07 11.9 53.3 85 9.4 48.8 0
02:38 1020 30.12 849 25.07 11.8 53.2 85 9.3 48.8 0
02:39 1020 30.12 849 25.07 11.8 53.3 85 9.5 49 0
02:40 1020 30.12 849 25.07 11.9 53.4 85 9.4 49 0
02:41 1020 30.12 849 25.07 11.9 53.4 85 9.4 49 0
02:42 1020 30.12 849 25.07 12 53.5 84 9.4 49 0
02:43 1020 30.12 849 25.07 12 53.7 84 9.5 49.1 0
02:44 1020 30.12 849 25.07 12.1 53.8 84 9.5 49 0
02:45 1020 30.12 849 25.07 12.2 53.9 84 9.6 49.3 0
02:46 1020 30.12 849 25.07 12.2 54 84 9.6 49.3 0
02:47 1020 30.12 849 25.07 12.2 53.9 85 9.7 49.4 0
02:48 1020 30.12 849 25.07 12.1 53.8 85 9.7 49.4 0
02:49 1020 30.12 849 25.07 12 53.6 85 9.6 49.3 0
02:50 1020 30.12 849 25.07 11.9 53.5 85 9.6 49.3 0
02:51 1020 30.12 849 25.07 11.9 53.4 85 9.6 49.2 0
02:52 1020 30.12 849 25.07 11.9 53.5 85 9.6 49.2 0
02:53 1020 30.12 849 25.07 11.9 53.5 85 9.5 49.2 0
02:54 1020 30.12 849 25.07 12 53.5 85 9.6 49.2 0
02:55 1020 30.12 849 25.07 12 53.6 85 9.5 49.1 0
02:56 1020 30.12 849 25.07 12 53.5 85 9.5 49 0
02:57 1020 30.12 849 25.07 12 53.6 84 9.5 49 0
02:58 1020 30.12 849 25.07 12.1 53.8 84 9.5 49 0
02:59 1020 30.12 849 25.07 12.2 53.9 84 9.5 49.1 0
03:00 1020 30.12 849 25.07 12.1 53.8 84 9.5 49.1 0
03:01 1020 30.12 849 25.07 12 53.6 84 9.4 49 0
03:02 1020 30.12 849 25.07 11.9 53.4 85 9.5 49 0
03:03 1020 30.12 849 25.07 11.9 53.4 86 9.6 49.2 0
03:04 1020 30.12 849 25.07 11.8 53.3 86 9.6 49.2 0
03:05 1020 30.12 849 25.07 11.8 53.3 86 9.6 49.3 0
03:06 1020 30.12 849 25.07 11.8 53.2 86 9.5 49.1 0
03:07 1020 30.12 849 25.07 11.7 53.1 87 9.6 49.4 0
03:08 1020 30.12 849 25.07 11.7 53.1 87 9.6 49.3 0
03:09 1020 30.12 849 25.07 11.8 53.2 87 9.6 49.3 0
03:10 1020 30.12 849 25.07 11.8 53.3 86 9.6 49.3 0
03:11 1020 30.12 849 25.07 11.9 53.5 85 9.6 49.2 0
03:12 1020 30.12 849 25.07 12 53.5 85 9.6 49.2 0
03:13 1020 30.12 849 25.07 11.9 53.5 85 9.5 49.1 0
03:14 1020 30.12 849 25.07 11.9 53.4 85 9.5 49.1 0
03:15 1020 30.12 849 25.07 11.8 53.3 85 9.5 49 0
03:16 1020 30.12 849 25.07 11.8 53.2 85 9.3 48.8 0
03:17 1020 30.12 849 25.07 11.7 53.1 85 9.3 48.7 0
03:18 1020 30.12 849 25.07 11.6 52.9 86 9.3 48.8 0
03:19 1020 30.12 849 25.07 11.6 52.9 87 9.5 49.1 0
03:20 1020 30.12 849 25.07 11.6 52.9 87 9.5 49.1 0
03:21 1020 30.12 849 25.07 11.7 53 87 9.5 49.1 0
03:22 1020 30.12 849 25.07 11.8 53.2 86 9.5 49.1 0
03:23 1020 30.12 849 25.07 11.8 53.2 86 9.5 49 0
03:24 1020 30.12 849 25.07 11.8 53.3 85 9.5 49 0
03:25 1020 30.12 849 25.07 11.8 53.2 85 9.4 48.9 0
03:26 1020 30.12 849 25.07 11.8 53.3 85 9.3 48.8 0
03:27 1020 30.12 849 25.07 11.7 53.1 86 9.4 48.9 0
03:28 1020 30.12 849 25.07 11.7 53.1 86 9.4 48.9 0
03:29 1020 30.12 849 25.07 11.7 53 85 9.2 48.6 0
03:30 1020 30.12 849 25.07 11.4 52.6 85 9 48.2 0
03:31 1020 30.12 849 25.07 11.2 52.2 88 9.3 48.8 0
03:32 1020 30.12 849 25.07 11.4 52.5 87 9.4 48.9 0
03:33 1020 30.12 850 25.1 11.8 53.3 84 9.3 48.7 0
03:34 1020 30.12 849 25.07 12 53.6 83 9.2 48.5 0
03:35 1020 30.12 850 25.1 11.9 53.4 83 9.1 48.4 0
03:36 1020 30.12 850 25.1 11.8 53.2 83 9 48.1 0
03:37 1020 30.12 850 25.1 11.5 52.6 85 9 48.2 0
03:38 1020 30.12 850 25.1 11.4 52.4 86 9.2 48.5 0
03:39 1020 30.12 850 25.1 11.4 52.5 85 8.9 48 0
03:40 1020 30.12 850 25.1 11.3 52.3 86 9 48.2 0
03:41 1020 30.12 850 25.1 11.2 52.2 86 8.9 48.1 0
03:42 1020 30.12 850 25.1 11.2 52.1 86 8.9 48.1 0
03:43 1020 30.12 850 25.1 11.1 52 85 8.7 47.6 0
03:44 1020 30.12 850 25.1 11 51.8 88 9 48.3 0
03:45 1020 30.12 850 25.1 11.2 52.2 86 9 48.3 0
03:46 1020 30.12 850 25.1 11.4 52.6 86 9.2 48.6 0
03:47 1020 30.12 850 25.1 11.6 52.9 83 8.9 48.1 0
03:48 1020 30.12 850 25.1 11.6 52.9 82 8.7 47.6 0
03:49 1020 30.12 850 25.1 11.5 52.6 84 8.9 48 0
03:50 1020 30.12 850 25.1 11.4 52.5 83 8.6 47.4 0
03:51 1020 30.12 850 25.1 11.1 52.1 84 8.6 47.5 0
03:52 1020 30.12 850 25.1 10.9 51.7 86 8.7 47.7 0
03:53 1020 30.12 850 25.1 10.9 51.6 86 8.7 47.6 0
03:54 1020 30.12 850 25.1 10.9 51.5 87 8.7 47.7 0
03:55 1020 30.12 850 25.1 10.8 51.5 87 8.7 47.6 0
03:56 1020 30.12 850 25.1 10.8 51.4 86 8.6 47.4 0
03:57 1020 30.12 850 25.1 10.6 51.1 87 8.6 47.5 0
03:58 1020 30.12 850 25.1 10.6 51.2 88 8.8 47.8 0
03:59 1020 30.12 850 25.1 10.8 51.4 87 8.7 47.7 0
04:00 1020 30.12 850 25.1 10.9 51.5 87 8.8 47.8 0
04:01 1020 30.12 850 25.1 10.9 51.7 86 8.7 47.7 0
04:02 1020 30.12 850 25.1 10.8 51.4 87 8.7 47.6 0
04:03 1020 30.12 850 25.1 10.7 51.3 88 8.8 47.8 0
04:04 1020 30.12 850 25.1 10.6 51.1 88 8.7 47.7 0
04:05 1020 30.12 850 25.1 10.6 51 88 8.8 47.8 0
04:06 1020 30.12 850 25.1 10.5 50.9 89 8.8 47.8 0
04:07 1020 30.12 850 25.1 10.6 51.1 89 8.8 47.8 0
04:08 1020 30.12 850 25.1 10.6 51 89 8.8 47.8 0
04:09 1020 30.12 850 25.1 10.6 51.1 89 8.9 47.9 0
04:10 1020 30.12 850 25.1 10.6 51.1 89 8.9 47.9 0
04:11 1020 30.12 850 25.1 10.6 51.2 89 8.9 47.9 0
04:12 1020 30.12 850 25.1 10.7 51.3 89 8.9 48 0
04:13 1020 30.12 850 25.1 10.7 51.3 89 8.9 48 0
04:14 1020 30.12 850 25.1 10.8 51.5 88 9 48.1 0
04:15 1020 30.12 850 25.1 10.9 51.7 88 9 48.2 0
04:16 1020 30.12 850 25.1 11 51.8 87 9 48.2 0
04:17 1020 30.12 850 25.1 11.1 51.9 87 9 48.2 0
04:18 1020 30.12 850 25.1 11.1 52.1 87 9 48.3 0
04:19 1020 30.12 850 25.1 11.1 52 87 9 48.2 0
04:20 1020 30.12 850 25.1 11.2 52.1 86 9 48.2 0
04:21 1020 30.12 850 25.1 11.2 52.2 86 9 48.1 0
04:22 1020 30.12 850 25.1 11.1 52.1 86 9 48.1 0
04:23 1020 30.12 850 25.1 11.1 52 87 8.9 48.1 0
04:24 1020 30.12 850 25.1 11 51.8 87 8.9 48.1 0
04:25 1020 30.12 850 25.1 11 51.7 87 8.9 48.1 0
04:26 1020 30.12 850 25.1 10.9 51.6 88 8.9 48 0
04:27 1020 30.12 850 25.1 10.8 51.5 88 8.9 48.1 0
04:28 1020 30.12 850 25.1 10.8 51.4 88 8.9 48 0
04:29 1020 30.12 850 25.1 10.8 51.4 88 8.9 47.9 0
04:30 1020 30.12 850 25.1 10.9 51.5 88 8.9 48 0
04:31 1020 30.12 850 25.1 10.8 51.5 87 8.8 47.9 0
04:32 1020 30.12 850 25.1 10.8 51.5 87 8.8 47.9 0
04:33 1020 30.12 850 25.1 10.8 51.5 87 8.8 47.9 0
04:34 1020 30.12 850 25.1 10.7 51.3 88 8.8 47.8 0
04:35 1020 30.12 850 25.1 10.6 51.1 88 8.8 47.8 0
04:36 1020 30.12 850 25.1 10.6 51 89 8.8 47.8 0
04:37 1020 30.12 850 25.1 10.5 50.9 89 8.8 47.8 0
04:38 1020 30.12 850 25.1 10.5 51 89 8.8 47.8 0
04:39 1020 30.12 850 25.1 10.6 51.1 88 8.8 47.8 0
04:40 1020 30.12 850 25.1 10.6 51.1 88 8.7 47.7 0
04:41 1020 30.12 850 25.1 10.6 51.1 88 8.8 47.8 0
04:42 1020 30.12 850 25.1 10.6 51.1 88 8.7 47.7 0
04:43 1020 30.12 850 25.1 10.6 51 88 8.7 47.7 0
04:44 1020 30.12 850 25.1 10.5 51 88 8.7 47.6 0
04:45 1020 30.12 850 25.1 10.5 50.8 88 8.6 47.5 0
04:46 1020 30.12 850 25.1 10.4 50.8 89 8.6 47.5 0
04:47 1020 30.12 850 25.1 10.4 50.7 89 8.7 47.6 0
04:48 1020 30.12 850 25.1 10.4 50.7 89 8.7 47.6 0
04:49 1020 30.12 850 25.1 10.4 50.7 89 8.7 47.7 0
04:50 1020 30.12 850 25.1 10.4 50.7 89 8.7 47.6 0
04:51 1021 30.15 850 25.1 10.3 50.6 89 8.5 47.4 0
04:52 1020 30.12 850 25.1 10.3 50.5 89 8.5 47.3 0
04:53 1021 30.15 850 25.1 10.2 50.3 89 8.5 47.3 0
04:54 1021 30.15 850 25.1 10.1 50.2 90 8.5 47.2 0
04:55 1021 30.15 850 25.1 10.1 50.1 90 8.5 47.3 0
04:56 1021 30.15 850 25.1 10.1 50.2 90 8.5 47.3 0
04:57 1021 30.15 850 25.1 10.1 50.2 90 8.5 47.3 0
04:58 1021 30.15 850 25.1 10.1 50.1 90 8.5 47.3 0
04:59 1021 30.15 850 25.1 10.1 50.2 90 8.5 47.3 0
05:00 1021 30.15 850 25.1 10.1 50.2 90 8.6 47.4 0
05:01 1021 30.15 850 25.1 10.1 50.1 90 8.5 47.3 0
05:02 1021 30.15 850 25.1 10 50.1 91 8.6 47.4 0
05:03 1021 30.15 850 25.1 10.1 50.1 91 8.6 47.5 0
05:04 1021 30.15 850 25.1 10 50 91 8.6 47.4 0
05:05 1021 30.15 850 25.1 10 50 91 8.6 47.5 0
05:06 1021 30.15 850 25.1 10.1 50.1 91 8.6 47.5 0
05:07 1021 30.15 850 25.1 10.1 50.2 91 8.6 47.5 0
05:08 1021 30.15 850 25.1 10.1 50.2 90 8.6 47.5 0
05:09 1021 30.15 850 25.1 10.2 50.3 90 8.6 47.5 0
05:10 1021 30.15 850 25.1 10.3 50.5 90 8.6 47.5 0
05:11 1021 30.15 850 25.1 10.3 50.6 89 8.6 47.5 0
05:12 1021 30.15 850 25.1 10.4 50.7 89 8.6 47.5 0
05:13 1021 30.15 850 25.1 10.5 50.9 88 8.6 47.5 0
05:14 1021 30.15 850 25.1 10.6 51 87 8.6 47.4 0
05:15 1021 30.15 850 25.1 10.6 51.1 87 8.5 47.4 0
05:16 1021 30.15 850 25.1 10.7 51.3 86 8.5 47.3 0
05:17 1021 30.15 850 25.1 10.8 51.4 86 8.6 47.4 0
05:18 1021 30.15 850 25.1 10.7 51.3 86 8.5 47.3 0
05:19 1021 30.15 850 25.1 10.7 51.2 86 8.5 47.3 0
05:20 1021 30.15 850 25.1 10.7 51.3 86 8.4 47.2 0
05:21 1021 30.15 850 25.1 10.7 51.3 86 8.5 47.3 0
05:22 1021 30.15 850 25.1 10.7 51.3 86 8.5 47.3 0
05:23 1021 30.15 850 25.1 10.7 51.2 86 8.4 47.1 0
05:24 1021 30.15 850 25.1 10.7 51.3 86 8.4 47.2 0
05:25 1021 30.15 850 25.1 10.8 51.4 85 8.4 47.2 0
05:26 1021 30.15 850 25.1 10.8 51.4 85 8.5 47.2 0
05:27 1021 30.15 850 25.1 10.8 51.4 85 8.5 47.2 0
05:28 1021 30.15 850 25.1 10.8 51.5 85 8.5 47.3 0
05:29 1021 30.15 850 25.1 10.9 51.6 85 8.4 47.2 0
05:30 1021 30.15 850 25.1 11 51.7 85 8.5 47.4 0
05:31 1021 30.15 850 25.1 10.9 51.6 86 8.6 47.5 0
05:32 1021 30.15 850 25.1 10.7 51.3 86 8.5 47.4 0
05:33 1021 30.15 850 25.1 10.6 51.1 87 8.6 47.5 0
05:34 1021 30.15 850 25.1 10.5 51 88 8.6 47.5 0
05:35 1021 30.15 850 25.1 10.5 50.9 87 8.5 47.3 0
05:36 1021 30.15 850 25.1 10.5 50.8 87 8.5 47.3 0
05:37 1021 30.15 850 25.1 10.4 50.8 87 8.4 47.1 0
05:38 1021 30.15 850 25.1 10.5 50.9 87 8.4 47 0
05:39 1021 30.15 850 25.1 10.6 51 86 8.3 46.9 0
05:40 1021 30.15 850 25.1 10.7 51.2 85 8.3 46.9 0
05:41 1021 30.15 850 25.1 10.8 51.4 85 8.3 46.9 0
05:42 1021 30.15 850 25.1 10.7 51.3 85 8.3 46.9 0
05:43 1021 30.15 850 25.1 10.8 51.4 84 8.2 46.8 0
05:44 1021 30.15 850 25.1 10.8 51.5 84 8.2 46.8 0
05:45 1021 30.15 850 25.1 10.8 51.5 84 8.3 46.9 0
05:46 1021 30.15 850 25.1 10.8 51.4 84 8.2 46.8 0
05:47 1021 30.15 850 25.1 10.8 51.4 84 8.2 46.8 0
05:48 1021 30.15 850 25.1 10.8 51.4 84 8.2 46.8 0
05:49 1021 30.15 850 25.1 10.8 51.4 84 8.2 46.7 0
05:50 1021 30.15 850 25.1 10.8 51.4 83 8.1 46.6 0
05:51 1021 30.15 850 25.1 10.9 51.6 83 8.1 46.6 0
05:52 1021 30.15 850 25.1 10.9 51.6 83 8.1 46.6 0
05:53 1021 30.15 850 25.1 10.8 51.5 83 8.1 46.5 0
05:54 1021 30.15 850 25.1 10.9 51.5 83 8.1 46.5 0
05:55 1021 30.15 850 25.1 10.8 51.5 83 8.1 46.6 0
05:56 1021 30.15 850 25.1 10.7 51.2 84 8.1 46.6 0
05:57 1021 30.15 850 25.1 10.6 51.1 84 8.1 46.6 0
05:58 1021 30.15 850 25.1 10.6 51 85 8.1 46.5 0
05:59 1021 30.15 850 25.1 10.4 50.8 85 8.1 46.5 0
06:00 1021 30.15 850 25.1 10.3 50.5 86 8 46.5 0
06:01 1021 30.15 850 25.1 10.4 50.6 86 8.1 46.5 0
06:02 1021 30.15 850 25.1 10.5 50.8 86 8.2 46.7 0
06:03 1021 30.15 850 25.1 10.6 51 85 8.2 46.8 0
06:04 1021 30.15 850 25.1 10.7 51.2 85 8.3 46.9 0
06:05 1021 30.15 850 25.1 10.7 51.3 85 8.3 47 0
06:06 1021 30.15 850 25.1 10.8 51.4 85 8.5 47.2 0
06:07 1021 30.15 850 25.1 10.7 51.3 86 8.4 47.2 0
06:08 1021 30.15 850 25.1 10.7 51.3 86 8.5 47.3 0
06:09 1021 30.15 850 25.1 10.7 51.3 86 8.6 47.4 0
06:10 1021 30.15 850 25.1 10.8 51.4 86 8.6 47.4 0
06:11 1021 30.15 850 25.1 10.9 51.5 86 8.6 47.5 0
06:12 1021 30.15 850 25.1 10.9 51.6 85 8.6 47.4 0
06:13 1021 30.15 850 25.1 11 51.7 85 8.6 47.5 0
06:14 1021 30.15 850 25.1 11 51.8 85 8.6 47.5 0
06:15 1021 30.15 850 25.1 11 51.8 85 8.6 47.6 0
06:16 1021 30.15 850 25.1 11 51.8 86 8.7 47.6 0
06:17 1021 30.15 850 25.1 11 51.8 86 8.8 47.8 0
06:18 1021 30.15 850 25.1 11 51.8 86 8.8 47.8 0
06:19 1021 30.15 850 25.1 11 51.9 86 8.9 48 0
06:20 1021 30.15 850 25.1 11.1 51.9 86 8.8 47.9 0
06:21 1021 30.15 850 25.1 11.1 52 86 8.8 47.8 0
06:22 1021 30.15 850 25.1 11.1 52 86 8.8 47.9 0
06:23 1021 30.15 850 25.1 11.1 51.9 86 8.9 47.9 0
06:24 1021 30.15 850 25.1 11.1 51.9 87 8.9 48 0
06:25 1021 30.15 850 25.1 11 51.8 87 8.9 48.1 0
06:26 1021 30.15 850 25.1 11 51.7 87 8.9 48.1 0
06:27 1021 30.15 850 25.1 11 51.7 87 8.9 48.1 0
06:28 1021 30.15 850 25.1 11 51.7 88 9 48.2 0
06:29 1021 30.15 850 25.1 11 51.7 87 8.9 47.9 0
06:30 1021 30.15 850 25.1 11.1 51.9 86 8.9 48 0
06:31 1021 30.15 850 25.1 11.2 52.2 85 8.9 48 0
06:32 1021 30.15 850 25.1 11.4 52.5 85 8.9 48 0
06:33 1021 30.15 850 25.1 11.4 52.5 85 8.9 48 0
06:34 1021 30.15 850 25.1 11.5 52.7 85 9 48.2 0
06:35 1021 30.15 850 25.1 11.5 52.7 84 8.9 48.1 0
06:36 1021 30.15 850 25.1 11.6 52.8 84 9 48.2 0
06:37 1021 30.15 850 25.1 11.6 52.9 84 9.1 48.3 0
06:38 1021 30.15 850 25.1 11.7 53 83 8.9 48.1 0
06:39 1021 30.15 850 25.1 11.7 53.1 83 8.9 48.1 0
06:40 1021 30.15 850 25.1 11.8 53.2 83 9 48.1 0
06:41 1021 30.15 850 25.1 11.8 53.2 83 9 48.1 0
06:42 1021 30.15 850 25.1 11.9 53.4 82 9 48.2 0
06:43 1021 30.15 850 25.1 11.9 53.4 83 9.1 48.3 0
06:44 1021 30.15 850 25.1 11.9 53.4 83 9 48.2 0
06:45 1021 30.15 850 25.1 11.9 53.5 82 9 48.2 0
06:46 1021 30.15 850 25.1 12 53.6 82 9.1 48.4 0
06:47 1021 30.15 850 25.1 12 53.5 82 9.1 48.3 0
06:48 1021 30.15 850 25.1 12 53.6 82 9.1 48.4 0
06:49 1021 30.15 850 25.1 12 53.6 82 9.1 48.4 0
06:50 1021 30.15 850 25.1 12 53.6 83 9.2 48.5 0
06:51 1021 30.15 850 25.1 12 53.6 83 9.3 48.7 0
06:52 1021 30.15 850 25.1 12 53.5 83 9.2 48.6 0
06:53 1021 30.15 850 25.1 12 53.6 84 9.4 48.8 0
06:54 1021 30.15 850 25.1 12 53.5 84 9.4 48.8 0
06:55 1021 30.15 850 25.1 12 53.6 84 9.4 49 0
06:56 1021 30.15 850 25.1 12 53.6 85 9.5 49.1 0
06:57 1021 30.15 851 25.13 12 53.5 84 9.4 49 0
06:58 1021 30.15 850 25.1 12 53.6 85 9.6 49.3 0
06:59 1021 30.15 851 25.13 12 53.7 86 9.7 49.5 0
07:00 1021 30.15 851 25.13 12.1 53.8 86 9.8 49.7 0
07:01 1021 30.15 850 25.1 12.1 53.8 85 9.7 49.5 0
07:02 1021 30.15 851 25.13 12.2 53.9 85 9.7 49.5 0
07:03 1021 30.15 850 25.1 12.2 53.9 85 9.8 49.6 0
07:04 1021 30.15 851 25.13 12.3 54.1 84 9.7 49.5 0
07:05 1021 30.15 851 25.13 12.3 54.1 84 9.8 49.6 0
07:06 1021 30.15 851 25.13 12.4 54.2 84 9.8 49.7 0
07:07 1021 30.15 850 25.1 12.4 54.3 84 9.9 49.8 0
07:08 1021 30.15 850 25.1 12.4 54.4 83 9.7 49.5 0
07:09 1021 30.15 850 25.1 12.5 54.5 83 9.8 49.6 0
07:10 1021 30.15 851 25.13 12.6 54.6 82 9.7 49.4 0
07:11 1021 30.15 851 25.13 12.7 54.8 82 9.7 49.4 0
07:12 1021 30.15 851 25.13 12.7 54.9 82 9.8 49.6 0
07:13 1021 30.15 851 25.13 12.7 54.9 82 9.8 49.6 0
07:14 1021 30.15 851 25.13 12.8 55 81 9.7 49.5 0
07:15 1021 30.15 851 25.13 12.9 55.1 81 9.7 49.4 0
07:16 1021 30.15 851 25.13 12.9 55.2 81 9.7 49.5 0
07:17 1021 30.15 851 25.13 13 55.4 81 9.8 49.6 0
07:18 1021 30.15 851 25.13 13.1 55.6 79 9.6 49.3 0
07:19 1021 30.15 851 25.13 13.1 55.6 80 9.8 49.6 0
07:20 1021 30.15 851 25.13 13.2 55.8 81 10 50 0
07:21 1021 30.15 851 25.13 13.3 55.9 80 9.8 49.7 0
07:22 1021 30.15 851 25.13 13.4 56 79 9.7 49.5 0
07:23 1021 30.15 851 25.13 13.4 56.2 78 9.8 49.6 0
07:24 1021 30.15 851 25.13 13.5 56.4 77 9.6 49.3 0
07:25 1021 30.15 851 25.13 13.6 56.5 77 9.7 49.5 0
07:26 1021 30.15 851 25.13 13.7 56.7 77 9.8 49.6 0
07:27 1021 30.15 851 25.13 13.8 56.8 74 9.4 48.9 0
07:28 1021 30.15 851 25.13 13.9 57 76 9.8 49.6 0
07:29 1021 30.15 851 25.13 14 57.2 75 9.8 49.6 0
07:30 1021 30.15 851 25.13 14.1 57.3 77 10 50.1 0
07:31 1021 30.15 851 25.13 14.2 57.5 77 10.2 50.3 0
07:32 1021 30.15 851 25.13 14.2 57.6 75 9.9 49.8 0
07:33 1021 30.15 851 25.13 14.3 57.7 74 9.8 49.6 0
07:34 1021 30.15 851 25.13 14.3 57.8 73 9.6 49.2 0
07:35 1022 30.18 851 25.13 14.4 57.9 76 10.2 50.3 0
07:36 1022 30.18 851 25.13 14.4 58 75 10.1 50.2 0
07:37 1022 30.18 851 25.13 14.4 57.9 76 10.2 50.4 0
07:38 1022 30.18 851 25.13 14.5 58.1 75 10.1 50.2 0
07:39 1021 30.15 851 25.13 14.5 58.1 74 10 50.1 0
07:40 1022 30.18 851 25.13 14.5 58.2 73 9.9 49.8 0
07:41 1022 30.18 851 25.13 14.6 58.2 74 10.1 50.1 0
07:42 1022 30.18 851 25.13 14.6 58.2 74 10 50 0
07:43 1022 30.18 851 25.13 14.6 58.3 75 10.3 50.5 0
07:44 1022 30.18 851 25.13 14.7 58.4 77 10.7 51.2 0
07:45 1022 30.18 851 25.13 14.7 58.4 75 10.4 50.7 0
07:46 1022 30.18 851 25.13 14.7 58.4 76 10.5 50.8 0
07:47 1022 30.18 851 25.13 14.7 58.4 76 10.4 50.8 0
07:48 1022 30.18 851 25.13 14.7 58.5 76 10.5 50.9 0
07:49 1022 30.18 851 25.13 14.8 58.6 74 10.2 50.4 0
07:50 1022 30.18 851 25.13 14.8 58.7 76 10.6 51.1 0
07:51 1022 30.18 851 25.13 14.9 58.7 75 10.6 51 0
07:52 1022 30.18 851 25.13 14.9 58.9 75 10.6 51.1 0
07:53 1022 30.18 851 25.13 15 58.9 74 10.4 50.8 0
07:54 1022 30.18 851 25.13 15 58.9 76 10.8 51.4 0
07:55 1022 30.18 851 25.13 15 59 78 11.2 52.1 0
07:56 1022 30.18 851 25.13 15 59.1 77 11.1 51.9 0
07:57 1022 30.18 851 25.13 15.1 59.1 73 10.3 50.6 0
07:58 1022 30.18 851 25.13 15.1 59.2 75 10.7 51.3 0
07:59 1022 30.18 851 25.13 15.2 59.3 70 9.9 49.8 0
08:00 1022 30.18 851 25.13 15.2 59.4 71 10.1 50.3 0
08:01 1022 30.18 851 25.13 15.3 59.5 70 9.9 49.9 0
08:02 1022 30.18 851 25.13 15.3 59.6 70 10 50 0
08:03 1022 30.18 851 25.13 15.4 59.6 70 9.9 49.9 0
08:04 1022 30.18 851 25.13 15.4 59.7 71 10.2 50.3 0
08:05 1022 30.18 851 25.13 15.4 59.8 73 10.6 51 0
08:06 1022 30.18 851 25.13 15.5 59.8 69 10 49.9 0
08:07 1022 30.18 851 25.13 15.5 59.9 70 10.1 50.1 0
08:08 1022 30.18 851 25.13 15.6 60 71 10.3 50.5 0
08:09 1022 30.18 851 25.13 15.6 60.1 72 10.5 51 0
08:10 1022 30.18 851 25.13 15.6 60.1 70 10.2 50.4 0
08:11 1022 30.18 851 25.13 15.6 60.1 68 9.8 49.7 0
08:12 1022 30.18 851 25.13 15.6 60.1 70 10.2 50.3 0
08:13 1022 30.18 851 25.13 15.6 60.1 71 10.5 51 0
08:14 1022 30.18 851 25.13 15.6 60.1 71 10.4 50.7 0
08:15 1022 30.18 851 25.13 15.6 60.1 68 9.9 49.8 0
08:16 1022 30.18 851 25.13 15.6 60 68 9.7 49.5 0
08:17 1022 30.18 851 25.13 15.6 60.1 67 9.7 49.4 0
08:18 1022 30.18 851 25.13 15.6 60.1 70 10.2 50.4 0
08:19 1022 30.18 851 25.13 15.6 60.1 69 10.1 50.2 0
08:20 1021 30.15 851 25.13 15.7 60.3 69 10.1 50.2 0
08:21 1021 30.15 851 25.13 15.7 60.3 69 10 50 0
08:22 1022 30.18 851 25.13 15.7 60.3 70 10.4 50.7 0
08:23 1022 30.18 851 25.13 15.7 60.3 71 10.5 51 0
08:24 1022 30.18 851 25.13 15.8 60.4 69 10.2 50.3 0
08:25 1022 30.18 851 25.13 15.8 60.4 68 10 50 0
08:26 1022 30.18 851 25.13 15.8 60.4 70 10.3 50.5 0
08:27 1022 30.18 851 25.13 15.8 60.5 68 10 50 0
08:28 1022 30.18 851 25.13 15.9 60.7 68 10 50.1 0
08:29 1022 30.18 851 25.13 16 60.8 68 10.1 50.2 0
08:30 1022 30.18 851 25.13 16 60.8 68 10.2 50.4 0
08:31 1022 30.18 851 25.13 16.1 60.9 67 10 50 0
08:32 1022 30.18 851 25.13 16 60.8 68 10.3 50.5 0
08:33 1022 30.18 851 25.13 16.1 60.9 67 10.1 50.2 0
08:34 1022 30.18 851 25.13 16 60.8 68 10.2 50.3 0
08:35 1022 30.18 851 25.13 16 60.8 68 10.2 50.3 0
08:36 1022 30.18 851 25.13 16 60.8 69 10.3 50.5 0
08:37 1022 30.18 851 25.13 16 60.7 68 10.2 50.3 0
08:38 1022 30.18 851 25.13 16 60.7 70 10.7 51.2 0
08:39 1022 30.18 851 25.13 16 60.8 67 9.9 49.8 0
08:40 1022 30.18 851 25.13 16 60.7 69 10.3 50.6 0
08:41 1022 30.18 851 25.13 16 60.8 67 9.9 49.9 0
08:42 1022 30.18 851 25.13 16 60.7 64 9.3 48.7 0
08:43 1022 30.18 851 25.13 16 60.8 64 9.2 48.5 0
08:44 1022 30.18 851 25.13 15.9 60.6 63 8.9 48.1 0
08:45 1022 30.18 851 25.13 16 60.7 66 9.8 49.7 0
08:46 1022 30.18 851 25.13 16 60.7 62 8.7 47.6 0
08:47 1022 30.18 851 25.13 15.9 60.7 62 8.8 47.9 0
08:48 1022 30.18 851 25.13 16 60.7 65 9.5 49 0
08:49 1022 30.18 851 25.13 16 60.7 66 9.6 49.2 0
08:50 1022 30.18 851 25.13 15.9 60.7 65 9.5 49.1 0
08:51 1022 30.18 851 25.13 16 60.8 64 9.2 48.6 0
08:52 1022 30.18 851 25.13 16 60.8 65 9.5 49.2 0
08:53 1022 30.18 851 25.13 16 60.7 67 10 49.9 0
08:54 1022 30.18 851 25.13 16 60.8 65 9.6 49.3 0
08:55 1022 30.18 851 25.13 16.1 61 66 9.8 49.7 0
08:56 1022 30.18 851 25.13 16.1 61 63 9.2 48.5 0
08:57 1022 30.18 851 25.13 16.2 61.2 65 9.7 49.4 0
08:58 1022 30.18 851 25.13 16.3 61.3 61 8.9 48.1 0
08:59 1022 30.18 851 25.13 16.4 61.5 67 10.2 50.4 0
09:00 1022 30.18 851 25.13 16.5 61.6 61 9.1 48.3 0
09:01 1022 30.18 851 25.13 16.5 61.6 61 9.1 48.4 0
09:02 1021 30.15 851 25.13 16.5 61.7 63 9.6 49.3 0
09:03 1021 30.15 851 25.13 16.6 61.9 60 8.9 48.1 0
09:04 1021 30.15 851 25.13 16.7 62 62 9.4 49 0
09:05 1021 30.15 851 25.13 16.7 62.1 60 8.9 48 0
09:06 1021 30.15 851 25.13 16.9 62.4 60 9.1 48.5 0
09:07 1021 30.15 851 25.13 17 62.6 54 7.8 46.1 0
09:08 1021 30.15 851 25.13 17 62.6 56 8.3 46.9 0
09:09 1021 30.15 851 25.13 17 62.6 58 8.7 47.7 0
09:10 1021 30.15 851 25.13 17.1 62.7 60 9.4 48.9 0
09:11 1021 30.15 851 25.13 17.1 62.8 57 8.6 47.5 0
09:12 1021 30.15 851 25.13 17.2 62.9 55 8.2 46.7 0
09:13 1021 30.15 851 25.13 17.3 63.1 56 8.5 47.3 0
09:14 1021 30.15 851 25.13 17.2 63 53 7.8 46 0
09:15 1021 30.15 851 25.13 17.2 62.9 59 9.3 48.8 0
09:16 1021 30.15 851 25.13 17.2 63 55 8.3 46.9 0
09:17 1021 30.15 851 25.13 17.2 63 54 7.8 46.1 0
09:18 1021 30.15 851 25.13 17.3 63.1 56 8.4 47.2 0
09:19 1021 30.15 851 25.13 17.3 63.2 56 8.6 47.4 0
09:20 1021 30.15 851 25.13 17.4 63.2 57 8.8 47.8 0
09:21 1021 30.15 851 25.13 17.3 63.2 55 8.3 47 0
09:22 1021 30.15 851 25.13 17.3 63.1 59 9.2 48.5 0
09:23 1021 30.15 851 25.13 17.2 63 59 9.2 48.6 0
09:24 1021 30.15 851 25.13 17.3 63.1 56 8.5 47.3 0
09:25 1021 30.15 851 25.13 17.3 63.2 61 9.9 49.9 0
09:26 1021 30.15 851 25.13 17.4 63.3 55 8.3 47 0
09:27 1021 30.15 851 25.13 17.5 63.6 58 9.2 48.5 0
09:28 1021 30.15 851 25.13 17.6 63.7 56 9 48.1 0
09:29 1021 30.15 851 25.13 17.7 63.8 52 7.7 45.9 0
09:30 1021 30.15 851 25.13 17.6 63.7 53 8.1 46.6 0
09:31 1021 30.15 851 25.13 17.6 63.6 55 8.5 47.3 0
09:32 1021 30.15 851 25.13 17.6 63.7 58 9.4 48.9 0
09:33 1021 30.15 851 25.13 17.7 63.8 55 8.6 47.5 0
09:34 1021 30.15 851 25.13 17.7 63.8 53 8 46.4 0
09:35 1021 30.15 851 25.13 17.6 63.6 52 7.6 45.6 0
09:36 1021 30.15 851 25.13 17.5 63.6 55 8.4 47.1 0
09:37 1021 30.15 851 25.13 17.6 63.6 55 8.5 47.3 0
09:38 1021 30.15 851 25.13 17.5 63.6 54 8.2 46.7 0
09:39 1021 30.15 851 25.13 17.5 63.4 51 7.4 45.2 0
09:40 1021 30.15 851 25.13 17.4 63.2 55 8.3 46.9 0
09:41 1021 30.15 851 25.13 17.4 63.3 56 8.6 47.5 0
09:42 1021 30.15 851 25.13 17.4 63.3 58 9.1 48.3 0
09:43 1021 30.15 851 25.13 17.4 63.4 56 8.7 47.7 0
09:44 1021 30.15 851 25.13 17.4 63.4 55 8.4 47.2 0
09:45 1021 30.15 851 25.13 17.4 63.3 53 8 46.3 0
09:46 1021 30.15 851 25.13 17.4 63.4 54 8 46.4 0
09:47 1021 30.15 851 25.13 17.5 63.5 56 8.7 47.7 0
09:48 1021 30.15 851 25.13 17.5 63.5 51 7.4 45.4 0
09:49 1021 30.15 851 25.13 17.5 63.5 52 7.8 46 0
09:50 1021 30.15 851 25.13 17.6 63.7 55 8.4 47.2 0
09:51 1021 30.15 851 25.13 17.6 63.7 56 8.9 48.1 0
09:52 1021 30.15 851 25.13 17.7 63.9 54 8.5 47.3 0
09:53 1021 30.15 851 25.13 17.8 64 51 7.6 45.7 0
09:54 1021 30.15 851 25.13 17.9 64.2 51 7.6 45.8 0
09:55 1021 30.15 851 25.13 18 64.4 51 8 46.3 0
09:56 1021 30.15 851 25.13 18.1 64.6 51 8.1 46.5 0
09:57 1021 30.15 850 25.1 18.3 64.9 51 8.1 46.7 0
09:58 1021 30.15 851 25.13 18.3 64.9 50 7.9 46.3 0
09:59 1021 30.15 850 25.1 18.3 64.9 50 7.8 46 0
10:00 1021 30.15 851 25.13 18.3 64.9 54 8.8 47.9 0
10:01 1021 30.15 850 25.1 18.2 64.8 48 7 44.6 0
10:02 1021 30.15 850 25.1 18.2 64.8 47 6.9 44.4 0
10:03 1021 30.15 850 25.1 18.2 64.8 47 7 44.5 0
10:04 1021 30.15 850 25.1 18.2 64.8 53 8.6 47.4 0
10:05 1021 30.15 850 25.1 18.3 64.9 45 6.4 43.5 0
10:06 1021 30.15 850 25.1 18.2 64.8 47 6.9 44.4 0
10:07 1021 30.15 850 25.1 18.4 65 47 6.8 44.3 0
10:08 1021 30.15 850 25.1 18.6 65.4 50 8.2 46.7 0
10:09 1021 30.15 850 25.1 18.7 65.6 49 7.7 45.9 0
10:10 1021 30.15 850 25.1 18.7 65.7 49 7.9 46.3 0
10:11 1021 30.15 850 25.1 18.7 65.6 47 7.3 45.2 0
10:12 1021 30.15 850 25.1 18.6 65.5 48 7.4 45.3 0
10:13 1021 30.15 850 25.1 18.6 65.4 48 7.5 45.4 0
10:14 1021 30.15 850 25.1 18.6 65.5 43 5.9 42.7 0
10:15 1021 30.15 850 25.1 18.6 65.4 43 5.7 42.3 0
10:16 1021 30.15 850 25.1 18.6 65.4 45 6.6 43.9 0
10:17 1021 30.15 850 25.1 18.6 65.4 50 8 46.4 0
10:18 1021 30.15 850 25.1 18.7 65.6 45 6.6 44 0
10:19 1021 30.15 850 25.1 18.7 65.6 45 6.6 43.8 0
10:20 1021 30.15 850 25.1 18.6 65.4 51 8.3 46.9 0
10:21 1021 30.15 850 25.1 18.6 65.4 50 8.2 46.7 0
10:22 1021 30.15 850 25.1 18.7 65.7 45 6.7 44.1 0
10:23 1021 30.15 850 25.1 18.8 65.8 47 7.4 45.3 0
10:24 1021 30.15 850 25.1 18.8 65.9 47 7.3 45.2 0
10:25 1021 30.15 850 25.1 18.9 66.1 44 6.5 43.7 0
10:26 1021 30.15 850 25.1 19.1 66.3 43 6.5 43.6 0
10:27 1021 30.15 850 25.1 19.1 66.4 43 6.5 43.7 0
10:28 1021 30.15 850 25.1 19.2 66.5 46 7.5 45.5 0
10:29 1021 30.15 850 25.1 19.2 66.5 42 6 42.9 0
10:30 1021 30.15 850 25.1 19.2 66.5 41 5.6 42 0
10:31 1021 30.15 850 25.1 19.1 66.4 43 6.3 43.3 0
10:32 1021 30.15 850 25.1 19.2 66.5 42 6 42.7 0
10:33 1021 30.15 850 25.1 19.4 66.9 40 5.7 42.2 0
10:34 1021 30.15 850 25.1 19.5 67.1 41 6.1 43 0
10:35 1021 30.15 850 25.1 19.6 67.3 39 5.5 41.9 0
10:36 1021 30.15 850 25.1 19.5 67.2 43 6.7 44 0
10:37 1021 30.15 850 25.1 19.5 67.2 42 6.6 43.8 0
10:38 1021 30.15 850 25.1 19.7 67.4 41 6.3 43.3 0
10:39 1021 30.15 850 25.1 19.7 67.5 40 5.9 42.6 0
10:40 1021 30.15 850 25.1 19.8 67.6 44 7.2 45 0
10:41 1021 30.15 850 25.1 19.8 67.7 42 6.8 44.2 0
10:42 1021 30.15 850 25.1 19.7 67.5 41 6.3 43.3 0
10:43 1021 30.15 850 25.1 19.8 67.6 43 7 44.5 0
10:44 1021 30.15 850 25.1 19.9 67.8 42 6.9 44.3 0
10:45 1021 30.15 850 25.1 19.8 67.7 40 6.1 43.1 0
10:46 1021 30.15 850 25.1 19.7 67.4 39 5.5 41.9 0
10:47 1021 30.15 850 25.1 19.6 67.4 40 5.9 42.5 0
10:48 1021 30.15 850 25.1 19.7 67.5 37 4.9 40.8 0
10:49 1021 30.15 850 25.1 19.8 67.7 40 5.9 42.6 0
10:50 1021 30.15 850 25.1 19.9 67.8 41 6.4 43.5 0
10:51 1021 30.15 850 25.1 20 68 41 6.6 43.9 0
10:52 1021 30.15 850 25.1 20.1 68.1 42 6.8 44.3 0
10:53 1021 30.15 850 25.1 20.2 68.4 42 7 44.6 0
10:54 1021 30.15 850 25.1 20.3 68.5 39 5.9 42.7 0
10:55 1021 30.15 850 25.1 20.2 68.3 38 5.6 42 0
10:56 1021 30.15 850 25.1 20.1 68.1 39 5.7 42.3 0
10:57 1021 30.15 850 25.1 20.2 68.3 39 5.9 42.7 0
10:58 1021 30.15 850 25.1 20.1 68.2 38 5.6 42.2 0
10:59 1021 30.15 850 25.1 20 68 37 5.2 41.3 0
11:00 1021 30.15 850 25.1 19.8 67.7 37 5 41 0
11:01 1021 30.15 850 25.1 19.7 67.5 38 5.1 41.1 0
11:02 1021 30.15 850 25.1 19.7 67.4 39 5.4 41.7 0
11:03 1021 30.15 850 25.1 19.7 67.4 42 6.6 43.9 0
11:04 1021 30.15 850 25.1 19.7 67.5 44 7.2 45 0
11:05 1021 30.15 850 25.1 19.8 67.6 41 6.3 43.4 0
11:06 1021 30.15 850 25.1 19.8 67.6 40 6 42.7 0
11:07 1021 30.15 850 25.1 19.7 67.4 39 5.4 41.7 0
11:08 1021 30.15 850 25.1 19.6 67.3 41 6.2 43.2 0
11:09 1021 30.15 850 25.1 19.6 67.3 40 5.7 42.2 0
11:10 1021 30.15 850 25.1 19.7 67.4 44 7.2 45 0
11:11 1021 30.15 850 25.1 19.7 67.5 41 6.2 43.2 0
11:12 1021 30.15 850 25.1 19.7 67.4 41 6.1 42.9 0
11:13 1021 30.15 850 25.1 19.7 67.4 41 6 42.9 0
11:14 1021 30.15 850 25.1 19.8 67.6 40 6 42.8 0
11:15 1021 30.15 850 25.1 19.9 67.8 38 5.5 41.8 0
11:16 1021 30.15 850 25.1 20 67.9 39 5.7 42.3 0
11:17 1021 30.15 850 25.1 20.2 68.3 38 5.7 42.2 0
11:18 1021 30.15 850 25.1 20.3 68.5 41 6.9 44.4 0
11:19 1021 30.15 850 25.1 20.4 68.7 39 6.1 43 0
11:20 1021 30.15 850 25.1 20.4 68.7 41 7 44.6 0
11:21 1021 30.15 850 25.1 20.3 68.6 44 7.7 45.9 0
11:22 1021 30.15 850 25.1 20.3 68.5 39 5.9 42.6 0
11:23 1021 30.15 850 25.1 20.2 68.3 44 7.7 45.9 0
11:24 1021 30.15 850 25.1 20.1 68.1 40 6.3 43.4 0
11:25 1021 30.15 850 25.1 19.9 67.8 42 6.7 44 0
11:26 1021 30.15 850 25.1 19.8 67.7 41 6.5 43.6 0
11:27 1021 30.15 850 25.1 19.8 67.7 43 7 44.7 0
11:28 1021 30.15 850 25.1 19.9 67.9 47 8.4 47.1 0
11:29 1021 30.15 850 25.1 20 68 45 7.7 45.9 0
11:30 1021 30.15 850 25.1 20.1 68.2 40 6.2 43.1 0
11:31 1021 30.15 850 25.1 20 68 44 7.6 45.6 0
11:32 1021 30.15 850 25.1 20 67.9 40 6.2 43.2 0
11:33 1021 30.15 850 25.1 20 67.9 44 7.3 45.2 0
11:34 1021 30.15 850 25.1 20 68.1 44 7.5 45.5 0
11:35 1021 30.15 850 25.1 20.1 68.1 41 6.5 43.6 0
11:36 1021 30.15 850 25.1 20 68 42 6.8 44.2 0
11:37 1021 30.15 850 25.1 19.9 67.9 43 7.1 44.9 0
11:38 1021 30.15 850 25.1 19.9 67.9 44 7.6 45.7 0
11:39 1021 30.15 850 25.1 20 68.1 43 7.1 44.9 0
11:40 1021 30.15 850 25.1 20.1 68.1 45 7.9 46.2 0
11:41 1021 30.15 850 25.1 20 68 38 5.4 41.8 0
11:42 1021 30.15 850 25.1 19.9 67.8 39 5.7 42.3 0
11:43 1021 30.15 850 25.1 19.9 67.8 40 6.1 43 0
11:44 1021 30.15 850 25.1 20.1 68.1 41 6.5 43.7 0
11:45 1021 30.15 850 25.1 20.3 68.5 41 6.8 44.2 0
11:46 1021 30.15 850 25.1 20.4 68.8 46 8.6 47.5 0
11:47 1021 30.15 850 25.1 20.4 68.7 44 7.8 46 0
11:48 1021 30.15 850 25.1 20.2 68.4 43 7.4 45.4 0
11:49 1021 30.15 850 25.1 20.2 68.3 46 8.4 47.1 0
11:50 1021 30.15 850 25.1 20.2 68.3 42 7 44.6 0
11:51 1021 30.15 850 25.1 20.3 68.5 49 9.5 49 0
11:52 1021 30.15 850 25.1 20.5 69 42 7.5 45.5 0
11:53 1021 30.15 850 25.1 20.5 68.9 39 6.1 43 0
11:54 1021 30.15 850 25.1 20.5 69 41 6.9 44.4 0
11:55 1021 30.15 850 25.1 20.6 69 39 6.1 43 0
11:56 1021 30.15 850 25.1 20.4 68.7 42 7.4 45.3 0
11:57 1021 30.15 850 25.1 20.4 68.8 46 8.6 47.6 0
11:58 1021 30.15 850 25.1 20.5 68.9 41 6.9 44.5 0
11:59 1021 30.15 850 25.1 20.5 69 45 8.5 47.3 0
12:00 1021 30.15 850 25.1 20.6 69.1 44 8 46.3 0
12:01 1021 30.15 850 25.1 20.6 69 39 6.3 43.4 0
12:02 1021 30.15 850 25.1 20.6 69 39 6.1 43 0
12:03 1021 30.15 850 25.1 20.6 69.1 40 6.6 43.9 0
12:04 1021 30.15 850 25.1 20.6 69.1 39 6.5 43.7 0
12:05 1021 30.15 850 25.1 20.5 68.9 41 7.1 44.8 0
12:06 1021 30.15 850 25.1 20.6 69.1 41 7.1 44.9 0
12:07 1021 30.15 850 25.1 20.6 69.1 41 7.2 45 0
12:08 1021 30.15 850 25.1 20.6 69.1 40 6.7 44 0
12:09 1021 30.15 850 25.1 20.7 69.2 42 7.5 45.5 0
12:10 1021 30.15 850 25.1 20.8 69.4 44 8.1 46.6 0
12:11 1021 30.15 850 25.1 20.9 69.6 41 7.4 45.3 0
12:12 1021 30.15 850 25.1 21 69.8 38 6.3 43.3 0
12:13 1021 30.15 850 25.1 21 69.8 42 7.8 46.1 0
12:14 1021 30.15 850 25.1 21.1 69.9 38 6.4 43.6 0
12:15 1021 30.15 850 25.1 21.1 69.9 39 6.6 43.8 0
12:16 1021 30.15 850 25.1 21 69.7 43 8.1 46.7 0
12:17 1021 30.15 850 25.1 21 69.8 41 7.4 45.3 0
12:18 1021 30.15 850 25.1 21.1 70 46 9.2 48.5 0
12:19 1021 30.15 850 25.1 21.3 70.3 46 9.5 49.1 0
12:20 1021 30.15 850 25.1 21.2 70.2 44 8.8 47.8 0
12:21 1021 30.15 850 25.1 21.1 70 43 8.1 46.6 0
12:22 1021 30.15 850 25.1 21 69.8 45 8.7 47.6 0
12:23 1021 30.15 850 25.1 21 69.8 40 6.9 44.5 0
12:24 1021 30.15 850 25.1 20.8 69.4 41 7.3 45.1 0
12:25 1021 30.15 850 25.1 20.8 69.4 39 6.5 43.6 0
12:26 1021 30.15 850 25.1 20.8 69.4 42 7.5 45.5 0
12:27 1021 30.15 850 25.1 20.8 69.4 38 6 42.8 0
12:28 1021 30.15 850 25.1 20.9 69.5 42 7.5 45.5 0
12:29 1021 30.15 850 25.1 21 69.8 37 6 42.8 0
12:30 1021 30.15 850 25.1 21.1 70 44 8.4 47.2 0
12:31 1020 30.12 850 25.1 21.2 70.2 42 8.1 46.6 0
12:32 1020 30.12 850 25.1 21.2 70.2 42 7.8 46.1 0
12:33 1020 30.12 850 25.1 21.1 70 41 7.6 45.6 0
12:34 1020 30.12 850 25.1 21 69.8 38 6.5 43.6 0
12:35 1020 30.12 850 25.1 21 69.7 41 7.3 45.1 0
12:36 1020 30.12 850 25.1 20.8 69.5 39 6.5 43.7 0
12:37 1020 30.12 850 25.1 20.9 69.5 38 6.3 43.3 0
12:38 1020 30.12 850 25.1 20.9 69.7 40 7.1 44.8 0
12:39 1020 30.12 850 25.1 20.9 69.6 39 6.5 43.6 0
12:40 1020 30.12 850 25.1 20.7 69.3 40 6.8 44.3 0
12:41 1020 30.12 850 25.1 20.7 69.3 40 6.7 44.1 0
12:42 1020 30.12 850 25.1 20.9 69.5 43 7.9 46.2 0
12:43 1020 30.12 850 25.1 21.1 70 45 8.9 47.9 0
12:44 1020 30.12 850 25.1 21.3 70.4 41 7.8 46 0
12:45 1020 30.12 850 25.1 21.3 70.3 47 9.7 49.4 0
12:46 1020 30.12 850 25.1 21.4 70.4 41 7.7 45.8 0
12:47 1020 30.12 850 25.1 21.3 70.4 43 8.3 47 0
12:48 1020 30.12 850 25.1 21.3 70.3 46 9.2 48.5 0
12:49 1020 30.12 850 25.1 21.2 70.2 44 8.7 47.6 0
12:50 1020 30.12 850 25.1 21.1 70.1 41 7.6 45.6 0
12:51 1020 30.12 850 25.1 21 69.8 40 7 44.6 0
12:52 1020 30.12 850 25.1 21.1 69.9 41 7.6 45.7 0
12:53 1020 30.12 850 25.1 21.2 70.1 39 6.9 44.4 0
12:54 1020 30.12 850 25.1 21.1 70 39 6.9 44.5 0
12:55 1020 30.12 850 25.1 21.1 69.9 35 5.4 41.7 0
12:56 1020 30.12 850 25.1 21 69.8 35 5.2 41.4 0
12:57 1020 30.12 850 25.1 21.1 69.9 40 7 44.6 0
12:58 1020 30.12 850 25.1 21.1 70 45 8.8 47.8 0
12:59 1020 30.12 850 25.1 21.1 70.1 38 6.6 43.8 0
13:00 1020 30.12 849 25.07 21.1 70 38 6.3 43.3 0
13:01 1020 30.12 849 25.07 21.1 70 38 6.5 43.7 0
13:02 1020 30.12 849 25.07 21.2 70.1 39 6.7 44.1 0
13:03 1020 30.12 849 25.07 21.2 70.1 41 7.5 45.6 0
13:04 1020 30.12 849 25.07 21.1 69.9 35 5.4 41.7 0
13:05 1020 30.12 849 25.07 21 69.9 39 6.9 44.3 0
13:06 1020 30.12 849 25.07 21.1 70 36 5.7 42.3 0
13:07 1020 30.12 849 25.07 21.2 70.1 37 5.9 42.7 0
13:08 1020 30.12 849 25.07 21.2 70.2 38 6.5 43.6 0
13:09 1020 30.12 849 25.07 21.3 70.4 38 6.5 43.7 0
13:10 1020 30.12 849 25.07 21.3 70.4 36 5.8 42.5 0
13:11 1020 30.12 849 25.07 21.3 70.4 41 7.6 45.7 0
13:12 1020 30.12 849 25.07 21.3 70.4 38 6.7 44 0
13:13 1020 30.12 849 25.07 21.3 70.3 37 6.3 43.3 0
13:14 1020 30.12 849 25.07 21.3 70.4 37 6.2 43.2 0
13:15 1020 30.12 849 25.07 21.5 70.7 36 6.2 43.1 0
13:16 1020 30.12 849 25.07 21.6 70.9 38 6.9 44.4 0
13:17 1020 30.12 849 25.07 21.7 71 36 6.2 43.1 0
13:18 1020 30.12 849 25.07 21.6 70.9 37 6.3 43.4 0
13:19 1020 30.12 849 25.07 21.7 71 33 4.7 40.4 0
13:20 1020 30.12 849 25.07 21.7 71 35 5.9 42.6 0
13:21 1020 30.12 849 25.07 21.7 71 35 5.6 42.1 0
13:22 1020 30.12 849 25.07 21.8 71.2 41 8 46.4 0
13:23 1020 30.12 849 25.07 21.9 71.5 33 5 41 0
13:24 1020 30.12 849 25.07 21.9 71.4 37 6.9 44.3 0
13:25 1020 30.12 849 25.07 21.9 71.3 37 6.7 44.1 0
13:26 1020 30.12 849 25.07 22 71.5 38 7 44.6 0
13:27 1020 30.12 849 25.07 22 71.6 38 7.2 44.9 0
13:28 1020 30.12 849 25.07 22.1 71.8 34 5.6 42.1 0
13:29 1020 30.12 849 25.07 22.2 72 33 5.4 41.7 0
13:30 1020 30.12 849 25.07 22.3 72.2 35 6.5 43.7 0
13:31 1020 30.12 849 25.07 22.4 72.4 37 7.3 45.1 0
13:32 1020 30.12 849 25.07 22.3 72.2 36 6.8 44.2 0
13:33 1020 30.12 849 25.07 22 71.6 33 5.4 41.7 0
13:34 1020 30.12 849 25.07 21.8 71.2 39 7.5 45.5 0
13:35 1020 30.12 849 25.07 21.9 71.4 43 8.9 48 0
13:36 1020 30.12 849 25.07 22.2 71.9 33 5.4 41.7 0
13:37 1020 30.12 849 25.07 22.2 71.9 33 5.2 41.4 0
13:38 1020 30.12 849 25.07 22.1 71.7 38 7.3 45.2 0
13:39 1020 30.12 849 25.07 22.1 71.8 37 6.7 44.1 0
13:40 1020 30.12 849 25.07 22.1 71.8 36 6.6 43.9 0
13:41 1020 30.12 849 25.07 22.1 71.8 39 7.6 45.6 0
13:42 1020 30.12 849 25.07 22.2 72 41 8.5 47.4 0
13:43 1020 30.12 849 25.07 22.5 72.5 35 6.5 43.7 0
13:44 1020 30.12 849 25.07 22.6 72.7 39 8 46.4 0
13:45 1020 30.12 849 25.07 22.8 73 41 9.1 48.3 0
13:46 1020 30.12 849 25.07 22.9 73.1 40 8.8 47.8 0
13:47 1020 30.12 849 25.07 22.7 72.9 35 6.9 44.4 0
13:48 1020 30.12 849 25.07 22.6 72.6 38 7.8 46 0
13:49 1020 30.12 849 25.07 22.5 72.6 35 6.6 44 0
13:50 1020 30.12 849 25.07 22.5 72.5 35 6.5 43.8 0
13:51 1020 30.12 849 25.07 22.4 72.3 39 8.1 46.6 0
13:52 1020 30.12 849 25.07 22.3 72.1 35 6.4 43.5 0
13:53 1020 30.12 849 25.07 22.1 71.8 37 6.7 44.1 0
13:54 1020 30.12 849 25.07 22.2 72 34 5.7 42.2 0
13:55 1020 30.12 849 25.07 22.4 72.2 36 6.7 44.1 0
13:56 1020 30.12 849 25.07 22.4 72.4 36 6.7 44 0
13:57 1020 30.12 849 25.07 22.6 72.6 35 6.7 44 0
13:58 1020 30.12 849 25.07 22.7 72.8 33 5.6 42.1 0
13:59 1020 30.12 849 25.07 22.7 72.9 35 6.9 44.4 0
14:00 1020 30.12 849 25.07 22.6 72.7 35 6.5 43.7 0
14:01 1020 30.12 849 25.07 22.5 72.5 40 8.3 46.9 0
14:02 1020 30.12 849 25.07 22.6 72.6 42 9.1 48.4 0
14:03 1020 30.12 849 25.07 22.7 72.9 37 7.3 45.1 0
14:04 1020 30.12 849 25.07 22.7 72.9 37 7.3 45.2 0
14:05 1020 30.12 849 25.07 22.7 72.9 37 7.6 45.6 0
14:06 1020 30.12 849 25.07 22.5 72.5 33 5.8 42.4 0
14:07 1020 30.12 849 25.07 22.4 72.4 34 6 42.9 0
14:08 1020 30.12 849 25.07 22.4 72.3 34 5.8 42.5 0
14:09 1020 30.12 849 25.07 22.3 72.2 34 5.7 42.3 0
14:10 1020 30.12 849 25.07 22.3 72.2 35 6.5 43.6 0
14:11 1020 30.12 849 25.07 22.4 72.3 35 6.5 43.7 0
14:12 1020 30.12 849 25.07 22.4 72.3 36 6.9 44.4 0
14:13 1020 30.12 849 25.07 22.5 72.6 38 7.6 45.6 0
14:14 1020 30.12 849 25.07 22.7 72.9 34 6.2 43.1 0
14:15 1020 30.12 849 25.07 22.8 73 35 6.8 44.2 0
14:16 1020 30.12 849 25.07 22.8 73 40 8.5 47.4 0
14:17 1020 30.12 849 25.07 22.9 73.2 40 8.9 48.1 0
14:18 1020 30.12 849 25.07 22.9 73.2 37 7.6 45.6 0
14:19 1020 30.12 849 25.07 22.9 73.2 38 8 46.4 0
14:20 1020 30.12 849 25.07 23 73.5 40 9 48.2 0
14:21 1020 30.12 849 25.07 23.1 73.6 36 7.3 45.1 0
14:22 1020 30.12 849 25.07 22.9 73.3 37 7.6 45.6 0
14:23 1020 30.12 849 25.07 22.8 73 34 6.5 43.7 0
14:24 1020 30.12 849 25.07 22.7 72.9 36 7.2 45 0
14:25 1020 30.12 849 25.07 22.7 72.9 35 6.5 43.7 0
14:26 1020 30.12 849 25.07 22.8 73.1 36 7.2 44.9 0
14:27 1020 30.12 849 25.07 23 73.4 34 6.6 43.9 0
14:28 1020 30.12 849 25.07 23.1 73.5 33 6.2 43.1 0
14:29 1020 30.12 849 25.07 23.1 73.5 33 6.1 42.9 0
14:30 1020 30.12 849 25.07 23 73.5 36 7.5 45.5 0
14:31 1020 30.12 849 25.07 23.1 73.6 33 6.1 42.9 0
14:32 1020 30.12 849 25.07 23.3 73.9 33 6.3 43.4 0
14:33 1020 30.12 849 25.07 23.3 74 38 8.5 47.3 0
14:34 1020 30.12 849 25.07 23.4 74 33 6.3 43.4 0
14:35 1020 30.12 849 25.07 23.3 73.9 35 7.2 45 0
14:36 1020 30.12 849 25.07 23.2 73.7 34 6.5 43.8 0
14:37 1020 30.12 849 25.07 23 73.5 35 7 44.5 0
14:38 1019 30.09 849 25.07 22.9 73.2 36 7.4 45.4 0
14:39 1019 30.09 849 25.07 22.9 73.2 34 6.3 43.3 0
14:40 1019 30.09 849 25.07 22.9 73.1 35 6.7 44.1 0
14:41 1019 30.09 849 25.07 22.8 73.1 36 7.1 44.7 0
14:42 1019 30.09 849 25.07 23 73.3 35 6.8 44.3 0
14:43 1019 30.09 849 25.07 23 73.4 34 6.4 43.6 0
14:44 1019 30.09 849 25.07 23.2 73.7 36 7.5 45.5 0
14:45 1019 30.09 849 25.07 23.2 73.8 33 6.1 43 0
14:46 1019 30.09 849 25.07 23.2 73.7 35 7 44.5 0
14:47 1019 30.09 849 25.07 23.1 73.5 32 5.8 42.4 0
14:48 1019 30.09 849 25.07 22.9 73.2 37 7.6 45.7 0
14:49 1019 30.09 849 25.07 22.7 72.8 37 7.3 45.2 0
14:50 1019 30.09 849 25.07 22.6 72.7 34 6.3 43.4 0
14:51 1019 30.09 849 25.07 22.6 72.7 37 7.3 45.2 0
14:52 1019 30.09 849 25.07 22.7 72.9 40 8.5 47.4 0
14:53 1019 30.09 849 25.07 22.7 72.8 36 6.9 44.5 0
14:54 1019 30.09 849 25.07 22.6 72.6 36 7 44.6 0
14:55 1019 30.09 849 25.07 22.5 72.5 38 7.5 45.5 0
14:56 1019 30.09 849 25.07 22.5 72.4 36 7 44.7 0
14:57 1019 30.09 848 25.04 22.5 72.4 33 5.5 41.9 0
14:58 1019 30.09 848 25.04 22.5 72.6 39 8.1 46.5 0
14:59 1019 30.09 849 25.07 22.6 72.6 40 8.6 47.5 0
15:00 1019 30.09 849 25.07 22.7 72.8 39 8.2 46.7 0
15:01 1019 30.09 849 25.07 22.6 72.7 36 6.9 44.5 0
15:02 1019 30.09 848 25.04 22.6 72.6 40 8.4 47.1 0
15:03 1019 30.09 848 25.04 22.6 72.8 38 7.6 45.7 0
15:04 1019 30.09 848 25.04 22.6 72.7 38 7.7 45.9 0
15:05 1019 30.09 848 25.04 22.7 72.8 40 8.4 47.1 0
15:06 1019 30.09 848 25.04 22.8 73 41 9.2 48.5 0
15:07 1019 30.09 849 25.07 22.9 73.2 36 7.1 44.8 0
15:08 1019 30.09 848 25.04 22.8 73 34 6.3 43.4 0
15:09 1019 30.09 848 25.04 22.7 72.9 35 6.5 43.8 0
15:10 1019 30.09 848 25.04 22.7 72.8 37 7.6 45.6 0
15:11 1019 30.09 848 25.04 22.6 72.7 41 8.8 47.8 0
15:12 1019 30.09 848 25.04 22.7 72.8 36 6.9 44.3 0
15:13 1019 30.09 848 25.04 22.7 72.9 37 7.6 45.7 0
15:14 1019 30.09 848 25.04 22.8 73 42 9.4 49 0
15:15 1019 30.09 848 25.04 22.9 73.2 41 9 48.2 0
15:16 1019 30.09 848 25.04 23 73.3 40 8.9 48 0
15:17 1019 30.09 848 25.04 23.1 73.6 36 7.3 45.1 0
15:18 1019 30.09 848 25.04 23.2 73.8 36 7.6 45.7 0
15:19 1019 30.09 848 25.04 23.2 73.8 33 6.3 43.4 0
15:20 1019 30.09 848 25.04 23.2 73.7 32 5.6 42.2 0
15:21 1019 30.09 848 25.04 23.3 73.9 35 7.3 45.1 0
15:22 1019 30.09 848 25.04 23.3 73.9 34 6.8 44.2 0
15:23 1019 30.09 848 25.04 23.3 73.9 33 6.1 43 0
15:24 1019 30.09 848 25.04 23.3 73.9 35 7.1 44.8 0
15:25 1019 30.09 848 25.04 23.2 73.8 35 7.1 44.9 0
15:26 1019 30.09 848 25.04 23.2 73.7 38 8.4 47.1 0
15:27 1019 30.09 848 25.04 23 73.4 37 7.7 45.8 0
15:28 1019 30.09 848 25.04 22.9 73.2 36 7.2 45 0
15:29 1019 30.09 848 25.04 22.8 73 33 6.1 42.9 0
15:30 1019 30.09 848 25.04 22.6 72.7 36 6.8 44.3 0
15:31 1019 30.09 848 25.04 22.5 72.6 38 7.8 46 0
15:32 1019 30.09 848 25.04 22.5 72.4 32 5.3 41.6 0
15:33 1019 30.09 848 25.04 22.4 72.4 38 7.5 45.5 0
15:34 1019 30.09 848 25.04 22.5 72.5 35 6.7 44 0
15:35 1019 30.09 848 25.04 22.5 72.4 34 6 42.8 0
15:36 1019 30.09 848 25.04 22.5 72.5 37 7.2 44.9 0
15:37 1019 30.09 848 25.04 22.5 72.5 38 7.9 46.2 0
15:38 1019 30.09 848 25.04 22.5 72.5 36 6.9 44.5 0
15:39 1019 30.09 848 25.04 22.5 72.5 39 8.2 46.7 0
15:40 1019 30.09 848 25.04 22.4 72.3 33 5.6 42.2 0
15:41 1019 30.09 848 25.04 22.4 72.3 36 7 44.6 0
15:42 1019 30.09 848 25.04 22.5 72.5 42 9.2 48.5 0
15:43 1019 30.09 848 25.04 22.6 72.6 39 8.1 46.6 0
15:44 1019 30.09 848 25.04 22.7 72.8 39 8.2 46.8 0
15:45 1019 30.09 848 25.04 22.7 72.9 33 5.7 42.3 0
15:46 1019 30.09 848 25.04 22.7 72.8 39 8.3 46.9 0
15:47 1019 30.09 848 25.04 22.7 72.9 33 5.8 42.5 0
15:48 1019 30.09 848 25.04 22.7 72.9 34 6.4 43.5 0
15:49 1019 30.09 848 25.04 22.7 72.9 39 8.3 46.9 0
15:50 1019 30.09 848 25.04 22.7 72.8 36 6.9 44.4 0
15:51 1019 30.09 848 25.04 22.7 72.9 36 7.2 45 0
15:52 1019 30.09 848 25.04 22.7 72.9 34 6.2 43.2 0
15:53 1019 30.09 848 25.04 22.7 72.9 35 6.6 43.8 0
15:54 1019 30.09 848 25.04 22.7 72.8 33 5.8 42.5 0
15:55 1019 30.09 848 25.04 22.6 72.7 37 7.2 44.9 0
15:56 1019 30.09 848 25.04 22.6 72.7 37 7.4 45.3 0
15:57 1019 30.09 848 25.04 22.6 72.7 34 6.4 43.5 0
15:58 1019 30.09 848 25.04 22.6 72.6 42 9.2 48.5 0
15:59 1019 30.09 848 25.04 22.6 72.7 33 5.8 42.5 0
16:00 1019 30.09 848 25.04 22.6 72.6 39 8.1 46.6 0
16:01 1019 30.09 848 25.04 22.5 72.5 40 8.3 47 0
16:02 1019 30.09 848 25.04 22.4 72.3 36 6.6 43.9 0
16:03 1019 30.09 848 25.04 22.4 72.4 37 7.1 44.8 0
16:04 1019 30.09 848 25.04 22.5 72.5 38 7.5 45.5 0
16:05 1019 30.09 848 25.04 22.5 72.5 36 6.8 44.2 0
16:06 1019 30.09 848 25.04 22.6 72.6 40 8.5 47.3 0
16:07 1019 30.09 848 25.04 22.7 72.8 34 6 42.8 0
16:08 1019 30.09 848 25.04 22.8 73.1 33 6.1 43 0
16:09 1019 30.09 848 25.04 22.9 73.2 37 7.6 45.6 0
16:10 1019 30.09 848 25.04 22.9 73.2 37 7.6 45.6 0
16:11 1019 30.09 848 25.04 22.9 73.3 33 6.2 43.1 0
16:12 1019 30.09 848 25.04 22.9 73.3 37 7.7 45.8 0
16:13 1019 30.09 848 25.04 23 73.4 39 8.4 47.1 0
16:14 1019 30.09 848 25.04 23 73.4 33 6.1 42.9 0
16:15 1019 30.09 848 25.04 23 73.5 36 7.5 45.5 0
16:16 1019 30.09 848 25.04 23.2 73.7 36 7.4 45.3 0
16:17 1019 30.09 848 25.04 23.2 73.8 33 6.2 43.2 0
16:18 1019 30.09 848 25.04 23.2 73.8 31 5.5 41.9 0
16:19 1019 30.09 848 25.04 23.2 73.7 33 6.4 43.4 0
16:20 1019 30.09 848 25.04 23.3 73.9 32 5.8 42.5 0
16:21 1019 30.09 848 25.04 23.5 74.2 33 6.6 43.8 0
16:22 1019 30.09 848 25.04 23.5 74.3 35 7.2 45 0
16:23 1019 30.09 848 25.04 23.6 74.4 39 8.8 47.9 0
16:24 1019 30.09 848 25.04 23.6 74.4 31 5.6 42.1 0
16:25 1019 30.09 848 25.04 23.4 74.1 31 5.6 42 0
16:26 1019 30.09 848 25.04 23.3 74 32 5.7 42.3 0
16:27 1019 30.09 848 25.04 23.4 74.1 32 5.9 42.6 0
16:28 1019 30.09 848 25.04 23.5 74.3 35 7.2 45 0
16:29 1019 30.09 848 25.04 23.5 74.4 38 8.4 47.2 0
16:30 1019 30.09 848 25.04 23.5 74.4 38 8.5 47.3 0
16:31 1019 30.09 848 25.04 23.6 74.5 32 6.3 43.3 0
16:32 1019 30.09 848 25.04 23.7 74.7 31 6 42.8 0
16:33 1019 30.09 848 25.04 23.8 74.9 35 7.8 46.1 0
16:34 1019 30.09 848 25.04 23.9 75 30 5.7 42.2 0
16:35 1019 30.09 848 25.04 23.8 74.8 30 5.6 42.1 0
16:36 1019 30.09 848 25.04 23.7 74.7 30 5.2 41.4 0
16:37 1019 30.09 848 25.04 23.8 74.8 33 6.7 44.1 0
16:38 1019 30.09 848 25.04 23.9 75 32 6.2 43.2 0
16:39 1019 30.09 848 25.04 24.1 75.4 33 7 44.5 0
16:40 1019 30.09 848 25.04 24.2 75.6 32 6.5 43.7 0
16:41 1019 30.09 848 25.04 24.1 75.3 30 5.5 42 0
16:42 1019 30.09 848 25.04 24.1 75.3 35 7.7 45.9 0
16:43 1019 30.09 848 25.04 24.1 75.4 32 6.8 44.2 0
16:44 1019 30.09 848 25.04 24.1 75.3 33 7 44.7 0
16:45 1019 30.09 848 25.04 23.9 75.1 32 6.3 43.3 0
16:46 1019 30.09 848 25.04 23.8 74.9 31 5.7 42.3 0
16:47 1019 30.09 848 25.04 23.8 74.9 32 6.2 43.2 0
16:48 1019 30.09 848 25.04 23.9 75.1 30 5.5 41.9 0
16:49 1019 30.09 848 25.04 23.9 75 30 5.7 42.2 0
16:50 1019 30.09 848 25.04 23.9 75.1 31 6.1 42.9 0
16:51 1019 30.09 848 25.04 24 75.2 33 6.8 44.2 0
16:52 1019 30.09 848 25.04 24 75.2 30 5.8 42.4 0
16:53 1019 30.09 848 25.04 23.9 74.9 30 5.6 42 0
16:54 1019 30.09 848 25.04 23.9 75 31 6.1 43 0
16:55 1018 30.06 848 25.04 24 75.1 31 6.2 43.2 0
16:56 1018 30.06 848 25.04 24 75.2 31 5.9 42.6 0
16:57 1018 30.06 848 25.04 24 75.2 31 6.2 43.2 0
16:58 1018 30.06 848 25.04 24 75.2 32 6.5 43.7 0
16:59 1018 30.06 848 25.04 24.1 75.4 32 6.5 43.7 0
17:00 1018 30.06 848 25.04 23.9 75 31 5.8 42.4 0
17:01 1018 30.06 848 25.04 23.9 75.1 34 7.2 45 0
17:02 1018 30.06 848 25.04 24 75.2 32 6.7 44.1 0
17:03 1018 30.06 848 25.04 24.1 75.4 32 6.5 43.7 0
17:04 1018 30.06 848 25.04 24.2 75.5 32 6.8 44.2 0
17:05 1018 30.06 848 25.04 24.2 75.5 29 5.4 41.8 0
17:06 1018 30.06 847 25.01 24.2 75.5 29 5.2 41.4 0
17:07 1018 30.06 847 25.01 24.2 75.5 29 5.2 41.4 0
17:08 1018 30.06 847 25.01 24.2 75.6 30 5.9 42.5 0
17:09 1018 30.06 847 25.01 24.4 75.8 30 6 42.9 0
17:10 1018 30.06 847 25.01 24.4 76 34 7.7 45.9 0
17:11 1018 30.06 847 25.01 24.4 75.9 31 6.2 43.2 0
17:12 1018 30.06 847 25.01 24.2 75.6 34 7.6 45.6 0
17:13 1018 30.06 847 25.01 24.2 75.6 29 5.1 41.1 0
17:14 1018 30.06 847 25.01 24.2 75.6 30 5.6 42.1 0
17:15 1018 30.06 847 25.01 24.2 75.5 32 6.5 43.6 0
17:16 1018 30.06 847 25.01 24.1 75.3 31 6.1 43 0
17:17 1018 30.06 847 25.01 24 75.2 30 5.5 41.9 0
17:18 1018 30.06 847 25.01 24 75.2 30 5.6 42.1 0
17:19 1018 30.06 847 25.01 24.2 75.5 33 7.3 45.2 0
17:20 1018 30.06 847 25.01 24.2 75.6 30 5.6 42.1 0
17:21 1018 30.06 847 25.01 24.3 75.7 28 4.9 40.7 0
17:22 1018 30.06 847 25.01 24.3 75.7 30 5.8 42.4 0
17:23 1018 30.06 847 25.01 24.3 75.7 31 6.1 42.9 0
17:24 1018 30.06 847 25.01 24.2 75.5 35 8 46.4 0
17:25 1018 30.06 847 25.01 24.1 75.3 31 5.9 42.6 0
17:26 1018 30.06 847 25.01 24.1 75.3 31 6.1 42.9 0
17:27 1018 30.06 847 25.01 24.2 75.5 28 4.6 40.3 0
17:28 1018 30.06 847 25.01 24.2 75.6 30 5.7 42.2 0
17:29 1018 30.06 847 25.01 24.3 75.7 31 6.4 43.6 0
17:30 1018 30.06 847 25.01 24.4 75.8 32 6.6 44 0
17:31 1018 30.06 847 25.01 24.4 75.9 33 7.1 44.8 0
17:32 1018 30.06 847 25.01 24.5 76.1 32 7 44.6 0
17:33 1018 30.06 847 25.01 24.6 76.3 33 7.3 45.2 0
17:34 1018 30.06 847 25.01 24.7 76.5 31 6.9 44.3 0
17:35 1018 30.06 847 25.01 24.7 76.4 30 6.1 42.9 0
17:36 1018 30.06 847 25.01 24.5 76 28 5.2 41.4 0
17:37 1018 30.06 847 25.01 24.3 75.7 28 4.9 40.9 0
17:38 1018 30.06 847 25.01 24.3 75.7 30 5.8 42.5 0
17:39 1018 30.06 847 25.01 24.2 75.6 31 6.3 43.3 0
17:40 1018 30.06 847 25.01 24.3 75.7 32 6.6 43.9 0
17:41 1018 30.06 847 25.01 24.3 75.8 32 7 44.6 0
17:42 1018 30.06 847 25.01 24.4 76 31 6.2 43.2 0
17:43 1018 30.06 847 25.01 24.4 76 31 6.3 43.4 0
17:44 1018 30.06 847 25.01 24.3 75.7 30 5.6 42.1 0
17:45 1018 30.06 847 25.01 24.3 75.7 30 5.6 42.1 0
17:46 1018 30.06 847 25.01 24.3 75.7 29 5.3 41.6 0
17:47 1018 30.06 847 25.01 24.2 75.6 29 5.2 41.3 0
17:48 1018 30.06 847 25.01 24.2 75.5 31 6.2 43.1 0
17:49 1018 30.06 847 25.01 24 75.1 32 6.6 44 0
17:50 1018 30.06 847 25.01 23.8 74.8 37 8.3 47 0
17:51 1018 30.06 847 25.01 23.5 74.3 32 6.3 43.3 0
17:52 1018 30.06 847 25.01 23.4 74.2 35 7.3 45.1 0
17:53 1018 30.06 847 25.01 23.4 74.1 31 5.7 42.2 0
17:54 1018 30.06 847 25.01 23.4 74.2 30 4.9 40.7 0
17:55 1018 30.06 847 25.01 23.5 74.4 30 5 41.1 0
17:56 1018 30.06 847 25.01 23.7 74.7 33 6.8 44.3 0
17:57 1018 30.06 847 25.01 23.8 74.8 29 5.1 41.3 0
17:58 1018 30.06 847 25.01 23.8 74.9 29 4.9 40.8 0
17:59 1018 30.06 847 25.01 23.8 74.9 33 6.6 43.9 0
18:00 1018 30.06 847 25.01 24 75.1 32 6.3 43.3 0
18:01 1018 30.06 847 25.01 24 75.1 31 6 42.8 0
18:02 1018 30.06 847 25.01 23.9 75 35 7.8 46 0
18:03 1018 30.06 847 25.01 23.7 74.7 36 8.1 46.5 0
18:04 1018 30.06 847 25.01 23.5 74.4 39 8.9 48.1 0
18:05 1018 30.06 847 25.01 23.4 74.1 31 5.6 42.1 0
18:06 1018 30.06 847 25.01 23.4 74.1 33 6.3 43.3 0
18:07 1018 30.06 847 25.01 23.4 74.1 39 8.9 48.1 0
18:08 1018 30.06 847 25.01 23.4 74.1 38 8.6 47.5 0
18:09 1018 30.06 847 25.01 23.3 74 36 7.7 45.9 0
18:10 1018 30.06 847 25.01 23.3 73.9 38 8.5 47.3 0
18:11 1018 30.06 847 25.01 23.3 73.9 40 9.1 48.4 0
18:12 1018 30.06 847 25.01 23.2 73.8 43 10 50 0
18:13 1018 30.06 847 25.01 23.2 73.8 39 8.6 47.4 0
18:14 1018 30.06 847 25.01 23.3 73.9 38 8.5 47.3 0
18:15 1018 30.06 847 25.01 23.3 74 37 7.9 46.2 0
18:16 1018 30.06 847 25.01 23.3 74 41 9.6 49.2 0
18:17 1018 30.06 847 25.01 23.3 74 41 9.6 49.4 0
18:18 1018 30.06 847 25.01 23.3 73.9 39 8.8 47.8 0
18:19 1018 30.06 847 25.01 23.3 73.9 35 7.2 45 0
18:20 1018 30.06 847 25.01 23.3 73.9 38 8.3 47 0
18:21 1018 30.06 847 25.01 23.2 73.7 39 8.7 47.7 0
18:22 1018 30.06 847 25.01 23.2 73.7 35 7.1 44.7 0
18:23 1018 30.06 847 25.01 23.2 73.7 35 7.1 44.7 0
18:24 1018 30.06 847 25.01 23.2 73.7 34 6.7 44.1 0
18:25 1018 30.06 847 25.01 23.2 73.8 30 4.9 40.8 0
18:26 1018 30.06 847 25.01 23.3 73.9 31 5.4 41.7 0
18:27 1018 30.06 847 25.01 23.5 74.3 31 5.8 42.4 0
18:28 1018 30.06 847 25.01 23.6 74.5 32 6.3 43.4 0
18:29 1018 30.06 847 25.01 23.7 74.6 35 7.6 45.8 0
18:30 1018 30.06 847 25.01 23.8 74.8 29 5.1 41.3 0
18:31 1018 30.06 847 25.01 24 75.1 30 5.7 42.3 0
18:32 1018 30.06 847 25.01 24.2 75.5 28 4.8 40.7 0
18:33 1018 30.06 847 25.01 24.4 76 29 5.5 41.9 0
18:34 1018 30.06 847 25.01 24.7 76.5 28 5.2 41.4 0
18:35 1018 30.06 847 25.01 24.9 76.8 29 6 42.8 0
18:36 1018 30.06 847 25.01 25.1 77.2 28 5.5 41.9 0
18:37 1018 30.06 847 25.01 25.2 77.4 29 6 42.8 0
18:38 1018 30.06 847 25.01 25.3 77.6 27 5.3 41.6 0
18:39 1018 30.06 847 25.01 25.4 77.7 29 6.3 43.3 0
18:40 1018 30.06 847 25.01 25.4 77.8 28 5.8 42.5 0
18:41 1018 30.06 847 25.01 25.4 77.8 28 6.1 42.9 0
18:42 1018 30.06 847 25.01 25.5 77.8 27 5.6 42 0
18:43 1018 30.06 847 25.01 25.4 77.7 27 5.4 41.7 0
18:44 1018 30.06 847 25.01 25.4 77.7 30 7 44.5 0
18:45 1018 30.06 847 25.01 25.4 77.7 28 6 42.7 0
18:46 1018 30.06 847 25.01 25.4 77.7 28 6 42.8 0
18:47 1018 30.06 847 25.01 25.4 77.7 31 7.3 45.2 0
18:48 1018 30.06 847 25.01 25.4 77.7 28 5.7 42.2 0
18:49 1018 30.06 847 25.01 25.4 77.8 29 6.1 43.1 0
18:50 1018 30.06 847 25.01 25.5 77.8 28 6.1 43 0
18:51 1018 30.06 847 25.01 25.5 77.8 29 6.3 43.4 0
18:52 1018 30.06 847 25.01 25.5 77.9 28 5.9 42.7 0
18:53 1018 30.06 847 25.01 25.5 78 28 6.2 43.1 0
18:54 1018 30.06 847 25.01 25.5 77.8 29 6.5 43.7 0
18:55 1018 30.06 847 25.01 25.3 77.6 28 5.7 42.2 0
18:56 1018 30.06 847 25.01 25.2 77.4 27 5.2 41.4 0
18:57 1018 30.06 847 25.01 25.1 77.2 29 6 42.9 0
18:58 1018 30.06 847 25.01 25.2 77.3 30 6.4 43.5 0
18:59 1018 30.06 847 25.01 25.2 77.4 29 6 42.7 0
19:00 1018 30.06 847 25.01 25.4 77.8 27 5.3 41.5 0
19:01 1018 30.06 847 25.01 25.6 78 27 5.5 41.9 0
19:02 1018 30.06 847 25.01 25.7 78.3 27 5.4 41.8 0
19:03 1018 30.06 847 25.01 25.8 78.4 27 5.5 42 0
19:04 1017 30.03 847 25.01 25.7 78.3 26 5.3 41.5 0
19:05 1017 30.03 847 25.01 25.7 78.2 27 5.4 41.7 0
19:06 1017 30.03 847 25.01 25.7 78.3 26 5.1 41.2 0
19:07 1017 30.03 847 25.01 25.9 78.5 29 6.5 43.7 0
19:08 1017 30.03 847 25.01 25.8 78.5 26 5.2 41.4 0
19:09 1017 30.03 847 25.01 25.8 78.5 25 4.6 40.2 0
19:10 1017 30.03 847 25.01 25.8 78.5 27 5.7 42.3 0
19:11 1017 30.03 847 25.01 25.9 78.6 27 5.6 42 0
19:12 1017 30.03 847 25.01 26 78.7 30 7.4 45.4 0
19:13 1017 30.03 847 25.01 25.9 78.7 28 6.5 43.7 0
19:14 1017 30.03 847 25.01 25.8 78.4 28 6.1 43 0
19:15 1017 30.03 847 25.01 25.7 78.2 31 7.4 45.2 0
19:16 1017 30.03 847 25.01 25.7 78.3 29 6.7 44.1 0
19:17 1017 30.03 847 25.01 25.7 78.2 28 6.2 43.2 0
19:18 1017 30.03 847 25.01 25.5 78 28 5.8 42.5 0
19:19 1017 30.03 847 25.01 25.5 77.9 29 6.2 43.1 0
19:20 1017 30.03 847 25.01 25.6 78.2 30 7.1 44.8 0
19:21 1017 30.03 847 25.01 25.9 78.5 28 6.1 42.9 0
19:22 1017 30.03 847 25.01 26 78.7 27 5.6 42 0
19:23 1017 30.03 847 25.01 25.9 78.7 29 6.5 43.8 0
19:24 1017 30.03 847 25.01 25.9 78.5 28 6.4 43.6 0
19:25 1017 30.03 847 25.01 25.8 78.4 28 6.2 43.2 0
19:26 1017 30.03 847 25.01 25.8 78.4 28 6.1 43 0
19:27 1017 30.03 847 25.01 25.8 78.4 29 6.5 43.6 0
19:28 1017 30.03 847 25.01 25.9 78.6 28 6.1 43 0
19:29 1017 30.03 847 25.01 26.1 78.9 28 6.4 43.5 0
19:30 1017 30.03 847 25.01 26.2 79.2 28 6.7 44.1 0
19:31 1017 30.03 847 25.01 26.3 79.3 27 5.8 42.5 0
19:32 1017 30.03 847 25.01 26.4 79.6 27 6.1 43 0
19:33 1017 30.03 847 25.01 26.5 79.7 28 6.9 44.4 0
19:34 1017 30.03 847 25.01 26.4 79.5 26 5.9 42.5 0
19:35 1017 30.03 847 25.01 26.2 79.1 27 5.9 42.7 0
19:36 1017 30.03 847 25.01 26.1 78.9 29 6.7 44 0
19:37 1017 30.03 847 25.01 25.9 78.7 28 6.5 43.6 0
19:38 1017 30.03 847 25.01 25.8 78.4 29 6.6 43.8 0
19:39 1017 30.03 847 25.01 25.8 78.4 30 6.9 44.5 0
19:40 1017 30.03 847 25.01 25.5 77.9 32 7.6 45.7 0
19:41 1017 30.03 847 25.01 25.2 77.4 36 9.2 48.6 0
19:42 1017 30.03 847 25.01 24.9 76.8 37 9.4 48.8 0
19:43 1017 30.03 847 25.01 24.7 76.4 39 9.9 49.8 0
19:44 1017 30.03 847 25.01 24.4 76 36 8.8 47.8 0
19:45 1017 30.03 847 25.01 24.2 75.6 38 9.4 48.9 0
19:46 1017 30.03 847 25.01 24.1 75.4 36 8.5 47.3 0
19:47 1017 30.03 846 24.98 24 75.2 39 9.3 48.7 0
19:48 1017 30.03 847 25.01 23.9 75.1 40 9.6 49.4 0
19:49 1017 30.03 846 24.98 23.8 74.9 42 10.2 50.3 0
19:50 1017 30.03 846 24.98 23.8 74.8 44 11.1 52 0
19:51 1017 30.03 846 24.98 23.7 74.6 46 11.6 52.8 0
19:52 1017 30.03 846 24.98 23.6 74.4 38 8.6 47.5 0
19:53 1017 30.03 846 24.98 23.4 74.2 43 10.5 50.8 0
19:54 1017 30.03 846 24.98 23.3 74 44 10.5 50.9 0
19:55 1017 30.03 846 24.98 23.2 73.8 44 10.5 50.8 0
19:56 1017 30.03 846 24.98 23.2 73.7 44 10.3 50.6 0
19:57 1017 30.03 846 24.98 23.1 73.5 45 10.6 51.1 0
19:58 1017 30.03 846 24.98 23 73.3 46 11.1 51.9 0
19:59 1017 30.03 846 24.98 22.9 73.2 41 9.1 48.3 0
20:00 1017 30.03 847 25.01 22.9 73.1 40 8.6 47.5 0
20:01 1017 30.03 847 25.01 22.8 73.1 40 8.7 47.6 0
20:02 1017 30.03 846 24.98 22.8 73.1 48 11.5 52.7 0
20:03 1017 30.03 847 25.01 22.7 72.9 50 12 53.6 0
20:04 1017 30.03 847 25.01 22.6 72.7 44 9.8 49.6 0
20:05 1017 30.03 847 25.01 22.6 72.7 46 10.6 51.1 0
20:06 1017 30.03 847 25.01 22.6 72.7 41 8.8 47.9 0
20:07 1017 30.03 847 25.01 22.7 72.9 45 10.3 50.6 0
20:08 1017 30.03 847 25.01 22.8 73 45 10.3 50.5 0
20:09 1017 30.03 847 25.01 22.8 73.1 37 7.7 45.9 0
20:10 1017 30.03 847 25.01 22.9 73.3 34 6.4 43.5 0
20:11 1017 30.03 847 25.01 23.1 73.5 46 11.1 51.9 0
20:12 1017 30.03 847 25.01 23.1 73.6 46 10.9 51.7 0
20:13 1017 30.03 847 25.01 23.1 73.5 38 8 46.5 0
20:14 1017 30.03 847 25.01 23.1 73.5 38 8.3 47 0
20:15 1017 30.03 847 25.01 23.2 73.7 42 9.7 49.5 0
20:16 1017 30.03 847 25.01 23.2 73.7 37 7.9 46.3 0
20:17 1017 30.03 847 25.01 23.2 73.7 37 8 46.5 0
20:18 1017 30.03 847 25.01 23.2 73.8 37 7.9 46.1 0
20:19 1017 30.03 847 25.01 23.3 73.9 36 7.5 45.4 0
20:20 1017 30.03 847 25.01 23.3 74 41 9.4 48.9 0
20:21 1017 30.03 847 25.01 23.4 74.1 40 9.1 48.5 0
20:22 1018 30.06 847 25.01 23.4 74.2 41 9.8 49.6 0
20:23 1018 30.06 847 25.01 23.5 74.2 41 9.7 49.5 0
20:24 1018 30.06 847 25.01 23.3 73.9 48 11.8 53.3 0
20:25 1018 30.06 847 25.01 23 73.5 47 11.3 52.3 0
20:26 1018 30.06 847 25.01 22.8 73.1 47 11 51.8 0
20:27 1018 30.06 847 25.01 22.6 72.7 45 10.1 50.2 0
20:28 1018 30.06 847 25.01 22.5 72.5 48 11.1 52 0
20:29 1018 30.06 847 25.01 22.4 72.3 47 10.7 51.2 0
20:30 1018 30.06 847 25.01 22.3 72.2 46 10.4 50.8 0
20:31 1018 30.06 847 25.01 22.3 72.1 49 11 51.9 0
20:32 1018 30.06 847 25.01 22.1 71.8 49 10.9 51.7 0
20:33 1018 30.06 847 25.01 22 71.5 50 11.2 52.1 0
20:34 1018 30.06 847 25.01 21.7 71.1 52 11.5 52.7 0
20:35 1018 30.06 847 25.01 21.6 70.8 52 11.4 52.6 0
20:36 1018 30.06 847 25.01 21.4 70.5 55 12.2 53.9 0
20:37 1018 30.06 847 25.01 21.2 70.2 55 11.9 53.5 0
20:38 1018 30.06 847 25.01 21.1 69.9 54 11.6 52.9 0
20:39 1018 30.06 847 25.01 20.9 69.7 56 12 53.6 0
20:40 1018 30.06 847 25.01 20.8 69.4 60 12.8 55.1 0
20:41 1018 30.06 847 25.01 20.5 68.9 54 10.9 51.7 0
20:42 1018 30.06 847 25.01 20.3 68.6 53 10.6 51 0
20:43 1018 30.06 847 25.01 20.3 68.5 54 10.7 51.2 0
20:44 1018 30.06 847 25.01 20.2 68.3 54 10.6 51.1 0
20:45 1018 30.06 847 25.01 20.1 68.1 54 10.5 51 0
20:46 1018 30.06 847 25.01 20 68 54 10.7 51.2 0
20:47 1018 30.06 847 25.01 19.9 67.8 60 11.9 53.4 0
20:48 1018 30.06 847 25.01 19.8 67.6 55 10.5 51 0
20:49 1018 30.06 847 25.01 19.8 67.7 52 9.7 49.5 0
20:50 1018 30.06 847 25.01 19.9 67.8 52 9.8 49.6 0
20:51 1018 30.06 847 25.01 19.9 67.8 59 11.8 53.3 0
20:52 1018 30.06 847 25.01 19.6 67.3 56 10.6 51.1 0
20:53 1018 30.06 847 25.01 19.4 67 58 11 51.8 0
20:54 1018 30.06 847 25.01 19.3 66.7 59 11.1 52 0
20:55 1018 30.06 847 25.01 19.2 66.6 61 11.7 53.1 0
20:56 1018 30.06 847 25.01 19 66.2 60 11.2 52.1 0
20:57 1018 30.06 847 25.01 18.8 65.8 62 11.5 52.8 0
20:58 1018 30.06 847 25.01 18.4 65.2 62 11.1 52 0
20:59 1018 30.06 847 25.01 18.1 64.7 62 10.9 51.6 0
21:00 1018 30.06 847 25.01 17.9 64.3 61 10.4 50.7 0
21:01 1018 30.06 847 25.01 17.8 64.1 63 10.7 51.2 0
21:02 1018 30.06 847 25.01 17.5 63.5 64 10.7 51.3 0
21:03 1018 30.06 847 25.01 17.2 62.9 64 10.3 50.6 0
21:04 1018 30.06 847 25.01 17 62.5 65 10.5 50.9 0
21:05 1018 30.06 847 25.01 16.8 62.3 66 10.5 50.9 0
21:06 1018 30.06 847 25.01 16.7 62 67 10.7 51.2 0
21:07 1018 30.06 847 25.01 16.5 61.6 68 10.6 51.1 0
21:08 1018 30.06 847 25.01 16.3 61.3 69 10.6 51.1 0
21:09 1018 30.06 847 25.01 16.1 61 70 10.7 51.3 0
21:10 1018 30.06 847 25.01 15.8 60.4 72 10.7 51.3 0
21:11 1018 30.06 847 25.01 15.4 59.7 73 10.6 51.1 0
21:12 1018 30.06 847 25.01 15.2 59.3 74 10.5 50.9 0
21:13 1018 30.06 847 25.01 14.9 58.9 74 10.3 50.6 0
21:14 1018 30.06 847 25.01 14.8 58.6 74 10.2 50.4 0
21:15 1018 30.06 847 25.01 14.7 58.4 75 10.3 50.5 0
21:16 1018 30.06 847 25.01 14.6 58.2 75 10.3 50.5 0
21:17 1018 30.06 847 25.01 14.4 58 76 10.3 50.5 0
21:18 1018 30.06 847 25.01 14.3 57.7 76 10.1 50.2 0
21:19 1018 30.06 847 25.01 14.1 57.5 76 10 49.9 0
21:20 1018 30.06 847 25.01 14 57.3 76 9.9 49.9 0
21:21 1018 30.06 847 25.01 14 57.1 77 10 49.9 0
21:22 1018 30.06 847 25.01 13.8 56.9 77 9.9 49.8 0
21:23 1018 30.06 847 25.01 13.7 56.7 77 9.8 49.7 0
21:24 1018 30.06 847 25.01 13.7 56.6 77 9.8 49.6 0
21:25 1018 30.06 847 25.01 13.7 56.6 78 9.8 49.7 0
21:26 1018 30.06 847 25.01 13.6 56.5 78 9.8 49.7 0
21:27 1018 30.06 847 25.01 13.6 56.4 78 9.8 49.6 0
21:28 1018 30.06 847 25.01 13.5 56.2 77 9.6 49.3 0
21:29 1018 30.06 847 25.01 13.4 56.1 77 9.5 49.1 0
21:30 1018 30.06 847 25.01 13.4 56.1 77 9.5 49.2 0
21:31 1018 30.06 847 25.01 13.4 56.1 77 9.5 49.2 0
21:32 1018 30.06 847 25.01 13.4 56.1 77 9.5 49 0
21:33 1018 30.06 847 25.01 13.4 56.1 77 9.5 49 0
21:34 1018 30.06 847 25.01 13.4 56.1 77 9.4 49 0
21:35 1018 30.06 848 25.04 13.4 56.1 77 9.5 49.1 0
21:36 1018 30.06 848 25.04 13.3 56 77 9.5 49.1 0
21:37 1018 30.06 848 25.04 13.3 55.9 78 9.4 49 0
21:38 1018 30.06 848 25.04 13.2 55.7 78 9.4 48.8 0
21:39 1018 30.06 848 25.04 13.1 55.5 79 9.6 49.2 0
21:40 1019 30.09 848 25.04 12.9 55.2 81 9.7 49.4 0
21:41 1019 30.09 848 25.04 12.8 55 80 9.4 48.9 0
21:42 1019 30.09 848 25.04 12.9 55.2 79 9.4 48.9 0
21:43 1019 30.09 848 25.04 13 55.3 80 9.6 49.2 0
21:44 1019 30.09 848 25.04 12.8 55.1 81 9.6 49.3 0
21:45 1019 30.09 848 25.04 12.8 55.1 81 9.6 49.3 0
21:46 1019 30.09 848 25.04 12.9 55.1 80 9.5 49 0
21:47 1019 30.09 848 25.04 12.9 55.2 80 9.5 49.1 0
21:48 1019 30.09 848 25.04 12.8 55 80 9.4 49 0
21:49 1019 30.09 848 25.04 12.6 54.8 81 9.5 49.1 0
21:50 1019 30.09 848 25.04 12.5 54.5 81 9.4 49 0
21:51 1019 30.09 848 25.04 12.4 54.4 81 9.3 48.8 0
21:52 1019 30.09 848 25.04 12.4 54.2 81 9.2 48.6 0
21:53 1019 30.09 848 25.04 12.4 54.3 80 9.1 48.4 0
21:54 1019 30.09 848 25.04 12.4 54.3 80 9.1 48.4 0
21:55 1019 30.09 848 25.04 12.3 54.1 81 9.1 48.3 0
21:56 1019 30.09 848 25.04 12.3 54.1 80 9 48.1 0
21:57 1019 30.09 848 25.04 12.4 54.2 79 8.9 48 0
21:58 1019 30.09 848 25.04 12.6 54.6 78 8.9 47.9 0
21:59 1019 30.09 848 25.04 12.7 54.8 77 8.8 47.9 0
22:00 1019 30.09 848 25.04 12.8 55 77 8.8 47.9 0
22:01 1019 30.09 848 25.04 12.7 54.9 77 8.8 47.8 0
22:02 1019 30.09 848 25.04 12.7 54.9 76 8.7 47.7 0
22:03 1019 30.09 848 25.04 12.8 55 76 8.7 47.6 0
22:04 1019 30.09 848 25.04 12.8 55.1 76 8.7 47.7 0
22:05 1019 30.09 848 25.04 12.9 55.1 76 8.8 47.8 0
22:06 1019 30.09 848 25.04 12.8 55 77 8.8 47.9 0
22:07 1019 30.09 848 25.04 12.6 54.7 78 8.8 47.9 0
22:08 1019 30.09 848 25.04 12.4 54.3 79 8.8 47.9 0
22:09 1019 30.09 848 25.04 12.1 53.8 80 8.8 47.8 0
22:10 1019 30.09 848 25.04 12 53.5 81 8.9 47.9 0
22:11 1019 30.09 848 25.04 11.8 53.2 82 8.8 47.9 0
22:12 1019 30.09 848 25.04 12 53.5 79 8.4 47.2 0
22:13 1019 30.09 848 25.04 12.5 54.4 77 8.6 47.5 0
22:14 1019 30.09 848 25.04 12.6 54.7 77 8.7 47.7 0
22:15 1019 30.09 848 25.04 12.6 54.6 77 8.7 47.7 0
22:16 1019 30.09 848 25.04 12.6 54.6 76 8.5 47.2 0
22:17 1019 30.09 848 25.04 12.7 54.9 75 8.5 47.3 0
22:18 1019 30.09 848 25.04 12.9 55.1 75 8.5 47.4 0
22:19 1019 30.09 848 25.04 12.9 55.3 74 8.5 47.3 0
22:20 1019 30.09 848 25.04 13 55.4 74 8.6 47.4 0
22:21 1019 30.09 848 25.04 13 55.4 74 8.5 47.2 0
22:22 1019 30.09 848 25.04 13.1 55.5 73 8.5 47.2 0
22:23 1019 30.09 848 25.04 13.2 55.8 73 8.5 47.2 0
22:24 1019 30.09 848 25.04 13.4 56 72 8.5 47.2 0
22:25 1019 30.09 848 25.04 13.5 56.2 71 8.5 47.2 0
22:26 1019 30.09 848 25.04 13.5 56.2 72 8.5 47.3 0
22:27 1019 30.09 848 25.04 13.3 55.9 72 8.4 47.2 0
22:28 1019 30.09 848 25.04 13.2 55.7 73 8.4 47.1 0
22:29 1019 30.09 848 25.04 13.1 55.6 72 8.3 46.9 0
22:30 1019 30.09 848 25.04 13.1 55.6 72 8.3 46.9 0
22:31 1019 30.09 848 25.04 13.2 55.7 72 8.2 46.8 0
22:32 1019 30.09 848 25.04 13.2 55.8 72 8.2 46.8 0
22:33 1019 30.09 848 25.04 13.2 55.8 72 8.3 46.9 0
22:34 1019 30.09 848 25.04 13.1 55.5 73 8.3 46.9 0
22:35 1019 30.09 848 25.04 13 55.3 73 8.3 46.9 0
22:36 1019 30.09 848 25.04 12.9 55.1 73 8.2 46.8 0
22:37 1019 30.09 848 25.04 12.9 55.2 73 8.2 46.8 0
22:38 1019 30.09 848 25.04 12.9 55.2 74 8.3 46.9 0
22:39 1019 30.09 848 25.04 12.8 55 74 8.3 46.9 0
22:40 1019 30.09 848 25.04 12.7 54.8 75 8.3 47 0
22:41 1019 30.09 848 25.04 12.5 54.6 75 8.2 46.8 0
22:42 1019 30.09 848 25.04 12.6 54.6 74 8.1 46.5 0
22:43 1019 30.09 848 25.04 12.8 55 72 8 46.4 0
22:44 1019 30.09 848 25.04 13.2 55.7 70 7.9 46.3 0
22:45 1019 30.09 848 25.04 13.5 56.3 69 8 46.4 0
22:46 1019 30.09 848 25.04 13.8 56.8 68 8 46.5 0
22:47 1019 30.09 848 25.04 13.9 57 68 8.2 46.7 0
22:48 1019 30.09 848 25.04 13.9 57 68 8.2 46.7 0
22:49 1019 30.09 848 25.04 13.9 57.1 68 8.2 46.8 0
22:50 1019 30.09 848 25.04 13.9 57.1 68 8.2 46.8 0
22:51 1019 30.09 848 25.04 13.9 56.9 69 8.3 46.9 0
22:52 1019 30.09 848 25.04 13.8 56.8 69 8.2 46.8 0
22:53 1019 30.09 848 25.04 13.7 56.7 69 8.1 46.6 0
22:54 1019 30.09 848 25.04 13.7 56.6 69 8.2 46.7 0
22:55 1019 30.09 848 25.04 13.7 56.6 69 8.2 46.7 0
22:56 1019 30.09 848 25.04 13.6 56.5 70 8.3 46.9 0
22:57 1019 30.09 848 25.04 13.5 56.2 70 8.2 46.8 0
22:58 1019 30.09 848 25.04 13.4 56 70 8.1 46.6 0
22:59 1019 30.09 848 25.04 13.4 56.1 70 8.1 46.6 0
23:00 1019 30.09 849 25.07 13.4 56 71 8.3 46.9 0
23:01 1019 30.09 849 25.07 13.2 55.7 72 8.3 46.9 0
23:02 1019 30.09 848 25.04 12.9 55.3 73 8.2 46.7 0
23:03 1019 30.09 849 25.07 12.8 55.1 73 8.2 46.7 0
23:04 1019 30.09 849 25.07 12.7 54.9 73 8.1 46.5 0
23:05 1019 30.09 849 25.07 12.7 54.8 73 8.1 46.6 0
23:06 1019 30.09 849 25.07 12.7 54.8 73 8.1 46.5 0
23:07 1019 30.09 849 25.07 12.7 54.9 72 7.9 46.3 0
23:08 1019 30.09 849 25.07 12.8 55.1 72 7.9 46.3 0
23:09 1019 30.09 849 25.07 12.9 55.1 72 8 46.4 0
23:10 1019 30.09 849 25.07 12.8 55 72 8 46.4 0
23:11 1019 30.09 849 25.07 12.7 54.9 73 8 46.4 0
23:12 1019 30.09 849 25.07 12.6 54.6 73 8 46.4 0
23:13 1019 30.09 849 25.07 12.5 54.4 76 8.3 46.9 0
23:14 1019 30.09 849 25.07 12.3 54.1 77 8.3 47 0
23:15 1019 30.09 849 25.07 12 53.7 77 8.2 46.7 0
23:16 1019 30.09 849 25.07 11.9 53.4 76 7.8 46.1 0
23:17 1019 30.09 849 25.07 12 53.7 73 7.4 45.3 0
23:18 1019 30.09 849 25.07 12.4 54.3 71 7.3 45.2 0
23:19 1019 30.09 849 25.07 12.9 55.1 69 7.4 45.2 0
23:20 1020 30.12 849 25.07 13.2 55.7 68 7.4 45.3 0
23:21 1020 30.12 849 25.07 13.3 56 68 7.6 45.6 0
23:22 1020 30.12 849 25.07 13.4 56.1 68 7.6 45.7 0
23:23 1019 30.09 849 25.07 13.3 56 69 7.7 45.9 0
23:24 1019 30.09 849 25.07 13.3 55.9 69 7.7 45.8 0
23:25 1019 30.09 849 25.07 13.1 55.6 69 7.6 45.6 0
23:26 1019 30.09 849 25.07 13.2 55.7 69 7.8 46 0
23:27 1019 30.09 849 25.07 13 55.4 70 7.8 46 0
23:28 1019 30.09 849 25.07 12.8 55 72 7.8 46.1 0
23:29 1019 30.09 849 25.07 12.6 54.7 72 7.8 46.1 0
23:30 1019 30.09 849 25.07 12.5 54.4 74 7.9 46.2 0
23:31 1019 30.09 849 25.07 12.3 54.2 74 7.9 46.2 0
23:32 1019 30.09 849 25.07 12.1 53.9 75 7.9 46.3 0
23:33 1019 30.09 849 25.07 12 53.5 76 7.9 46.3 0
23:34 1019 30.09 849 25.07 11.8 53.3 77 7.9 46.2 0
23:35 1019 30.09 849 25.07 11.7 53 77 7.9 46.2 0
23:36 1019 30.09 849 25.07 11.6 52.9 78 7.9 46.2 0
23:37 1020 30.12 849 25.07 11.5 52.8 78 7.8 46.1 0
23:38 1019 30.09 849 25.07 11.5 52.7 78 7.8 46 0
23:39 1020 30.12 849 25.07 11.5 52.7 78 7.7 45.9 0
23:40 1020 30.12 849 25.07 11.6 52.9 77 7.7 45.9 0
23:41 1020 30.12 849 25.07 11.7 53 77 7.7 45.9 0
23:42 1020 30.12 849 25.07 11.8 53.2 76 7.8 46 0
23:43 1020 30.12 849 25.07 11.9 53.3 76 7.7 45.9 0
23:44 1020 30.12 849 25.07 11.9 53.3 76 7.7 45.9 0
23:45 1020 30.12 849 25.07 11.8 53.3 76 7.8 46 0
23:46 1020 30.12 849 25.07 11.6 53 77 7.7 45.9 0
23:47 1020 30.12 849 25.07 11.5 52.7 77 7.7 45.8 0
23:48 1020 30.12 849 25.07 11.4 52.5 78 7.7 45.8 0
23:49 1020 30.12 849 25.07 11.3 52.3 80 7.9 46.3 0
23:50 1020 30.12 849 25.07 11 51.8 81 7.9 46.2 0
23:51 1020 30.12 849 25.07 10.8 51.5 81 7.8 46 0
23:52 1020 30.12 849 25.07 10.9 51.6 81 7.7 45.9 0
23:53 1020 30.12 849 25.07 11 51.7 80 7.7 45.9 0
23:54 1020 30.12 849 25.07 11 51.7 80 7.7 45.8 0
23:55 1020 30.12 849 25.07 11 51.7 80 7.6 45.8 0
23:56 1020 30.12 849 25.07 11 51.7 80 7.6 45.7 0
23:57 1020 30.12 849 25.07 10.9 51.6 80 7.6 45.6 0
23:58 1020 30.12 849 25.07 10.9 51.5 80 7.5 45.6 0
23:59 1020 30.12 849 25.07 10.7 51.3 80 7.5 45.5 0
24:00 1020 30.12 849 25.07 10.6 51.1 81 7.5 45.4 0